<?xml version="1.0" encoding="UTF-8" standalone="no" ?>
<gpx xmlns="http://www.topografix.com/GPX/1/1" xmlns:xsi="http://www.w3.org/2001/XMLSchema-instance" xsi:schemaLocation="http://www.topografix.com/GPX/1/1 http://www.topografix.com/GPX/1/1/gpx.xsd" version="1.1" creator="VisuGPX - https://www.visugpx.com">
  <metadata>
    <name>2020-09-17-46-luzech</name>
    <desc><![CDATA[belle randonnée de 10km avec 300m de dénivelé positif . Une vraie pente au départ sera la difficulté du jour]]></desc>
  </metadata>
  <trk>
    <name><![CDATA[2020-09-17 12:24:46]]></name>
    <trkseg>
      <trkpt lat="44.47744" lon="1.28567">
        <ele>102.04</ele>
        <time>2020-09-17T06:54:32Z</time>
      </trkpt>
      <trkpt lat="44.47754" lon="1.28568">
        <ele>108.77</ele>
        <time>2020-09-17T06:54:51Z</time>
      </trkpt>
      <trkpt lat="44.47767" lon="1.28579">
        <ele>100.11</ele>
        <time>2020-09-17T06:55:09Z</time>
      </trkpt>
      <trkpt lat="44.47784" lon="1.28577">
        <ele>102.52</ele>
        <time>2020-09-17T06:55:22Z</time>
      </trkpt>
      <trkpt lat="44.47796" lon="1.28565">
        <ele>102.04</ele>
        <time>2020-09-17T06:55:39Z</time>
      </trkpt>
      <trkpt lat="44.47787" lon="1.28547">
        <ele>100.11</ele>
        <time>2020-09-17T06:55:54Z</time>
      </trkpt>
      <trkpt lat="44.4778" lon="1.28519">
        <ele>101.08</ele>
        <time>2020-09-17T06:56:13Z</time>
      </trkpt>
      <trkpt lat="44.47772" lon="1.28493">
        <ele>99.63</ele>
        <time>2020-09-17T06:56:31Z</time>
      </trkpt>
      <trkpt lat="44.47764" lon="1.28461">
        <ele>102.52</ele>
        <time>2020-09-17T06:56:51Z</time>
      </trkpt>
      <trkpt lat="44.47756" lon="1.28433">
        <ele>102.04</ele>
        <time>2020-09-17T06:57:09Z</time>
      </trkpt>
      <trkpt lat="44.47755" lon="1.28429">
        <ele>101.56</ele>
        <time>2020-09-17T06:57:12Z</time>
      </trkpt>
      <trkpt lat="44.47752" lon="1.28414">
        <ele>102.04</ele>
        <time>2020-09-17T06:57:23Z</time>
      </trkpt>
      <trkpt lat="44.47744" lon="1.28383">
        <ele>100.6</ele>
        <time>2020-09-17T06:57:45Z</time>
      </trkpt>
      <trkpt lat="44.47738" lon="1.28353">
        <ele>99.15</ele>
        <time>2020-09-17T06:58:04Z</time>
      </trkpt>
      <trkpt lat="44.47733" lon="1.28329">
        <ele>95.79</ele>
        <time>2020-09-17T06:58:22Z</time>
      </trkpt>
      <trkpt lat="44.47726" lon="1.28303">
        <ele>95.31</ele>
        <time>2020-09-17T06:58:40Z</time>
      </trkpt>
      <trkpt lat="44.47722" lon="1.28286">
        <ele>94.83</ele>
        <time>2020-09-17T06:58:51Z</time>
      </trkpt>
      <trkpt lat="44.47716" lon="1.28259">
        <ele>95.79</ele>
        <time>2020-09-17T06:59:08Z</time>
      </trkpt>
      <trkpt lat="44.47716" lon="1.2825">
        <ele>97.23</ele>
        <time>2020-09-17T06:59:13Z</time>
      </trkpt>
      <trkpt lat="44.47715" lon="1.28243">
        <ele>98.19</ele>
        <time>2020-09-17T06:59:18Z</time>
      </trkpt>
      <trkpt lat="44.4771" lon="1.28222">
        <ele>96.75</ele>
        <time>2020-09-17T06:59:33Z</time>
      </trkpt>
      <trkpt lat="44.47707" lon="1.28202">
        <ele>96.27</ele>
        <time>2020-09-17T06:59:48Z</time>
      </trkpt>
      <trkpt lat="44.47696" lon="1.28185">
        <ele>94.83</ele>
        <time>2020-09-17T07:00:04Z</time>
      </trkpt>
      <trkpt lat="44.47691" lon="1.28188">
        <ele>93.87</ele>
        <time>2020-09-17T07:00:17Z</time>
      </trkpt>
      <trkpt lat="44.47667" lon="1.28188">
        <ele>94.83</ele>
        <time>2020-09-17T07:00:36Z</time>
      </trkpt>
      <trkpt lat="44.47646" lon="1.28189">
        <ele>96.27</ele>
        <time>2020-09-17T07:00:53Z</time>
      </trkpt>
      <trkpt lat="44.47623" lon="1.28193">
        <ele>97.71</ele>
        <time>2020-09-17T07:01:13Z</time>
      </trkpt>
      <trkpt lat="44.47602" lon="1.28194">
        <ele>97.23</ele>
        <time>2020-09-17T07:01:30Z</time>
      </trkpt>
      <trkpt lat="44.47575" lon="1.28193">
        <ele>98.19</ele>
        <time>2020-09-17T07:01:51Z</time>
      </trkpt>
      <trkpt lat="44.47552" lon="1.2819">
        <ele>94.83</ele>
        <time>2020-09-17T07:02:11Z</time>
      </trkpt>
      <trkpt lat="44.4753" lon="1.28175">
        <ele>94.83</ele>
        <time>2020-09-17T07:02:31Z</time>
      </trkpt>
      <trkpt lat="44.47517" lon="1.28148">
        <ele>96.75</ele>
        <time>2020-09-17T07:02:52Z</time>
      </trkpt>
      <trkpt lat="44.47503" lon="1.28119">
        <ele>98.67</ele>
        <time>2020-09-17T07:03:13Z</time>
      </trkpt>
      <trkpt lat="44.47491" lon="1.28103">
        <ele>99.63</ele>
        <time>2020-09-17T07:03:28Z</time>
      </trkpt>
      <trkpt lat="44.47468" lon="1.28109">
        <ele>99.15</ele>
        <time>2020-09-17T07:03:48Z</time>
      </trkpt>
      <trkpt lat="44.47444" lon="1.28118">
        <ele>97.23</ele>
        <time>2020-09-17T07:04:09Z</time>
      </trkpt>
      <trkpt lat="44.47418" lon="1.28121">
        <ele>95.31</ele>
        <time>2020-09-17T07:04:31Z</time>
      </trkpt>
      <trkpt lat="44.47397" lon="1.28122">
        <ele>93.87</ele>
        <time>2020-09-17T07:04:49Z</time>
      </trkpt>
      <trkpt lat="44.47374" lon="1.28127">
        <ele>91.94</ele>
        <time>2020-09-17T07:05:08Z</time>
      </trkpt>
      <trkpt lat="44.47356" lon="1.2813">
        <ele>90.02</ele>
        <time>2020-09-17T07:05:24Z</time>
      </trkpt>
      <trkpt lat="44.47332" lon="1.28129">
        <ele>87.62</ele>
        <time>2020-09-17T07:05:43Z</time>
      </trkpt>
      <trkpt lat="44.47307" lon="1.2814">
        <ele>90.02</ele>
        <time>2020-09-17T07:06:05Z</time>
      </trkpt>
      <trkpt lat="44.47286" lon="1.28161">
        <ele>93.39</ele>
        <time>2020-09-17T07:06:25Z</time>
      </trkpt>
      <trkpt lat="44.47263" lon="1.28166">
        <ele>92.9</ele>
        <time>2020-09-17T07:06:45Z</time>
      </trkpt>
      <trkpt lat="44.47244" lon="1.28179">
        <ele>93.39</ele>
        <time>2020-09-17T07:07:04Z</time>
      </trkpt>
      <trkpt lat="44.47221" lon="1.28183">
        <ele>96.27</ele>
        <time>2020-09-17T07:07:22Z</time>
      </trkpt>
      <trkpt lat="44.47212" lon="1.28189">
        <ele>95.79</ele>
        <time>2020-09-17T07:07:33Z</time>
      </trkpt>
      <trkpt lat="44.47213" lon="1.28202">
        <ele>95.79</ele>
        <time>2020-09-17T07:07:45Z</time>
      </trkpt>
      <trkpt lat="44.47213" lon="1.28226">
        <ele>94.83</ele>
        <time>2020-09-17T07:08:04Z</time>
      </trkpt>
      <trkpt lat="44.47213" lon="1.28257">
        <ele>94.35</ele>
        <time>2020-09-17T07:08:24Z</time>
      </trkpt>
      <trkpt lat="44.47202" lon="1.2827">
        <ele>93.39</ele>
        <time>2020-09-17T07:08:39Z</time>
      </trkpt>
      <trkpt lat="44.47192" lon="1.28273">
        <ele>91.46</ele>
        <time>2020-09-17T07:08:51Z</time>
      </trkpt>
      <trkpt lat="44.47176" lon="1.28271">
        <ele>90.5</ele>
        <time>2020-09-17T07:09:07Z</time>
      </trkpt>
      <trkpt lat="44.47174" lon="1.28271">
        <ele>90.02</ele>
        <time>2020-09-17T07:09:09Z</time>
      </trkpt>
      <trkpt lat="44.47155" lon="1.28269">
        <ele>88.58</ele>
        <time>2020-09-17T07:09:27Z</time>
      </trkpt>
      <trkpt lat="44.47136" lon="1.28266">
        <ele>88.1</ele>
        <time>2020-09-17T07:09:46Z</time>
      </trkpt>
      <trkpt lat="44.47117" lon="1.28263">
        <ele>88.1</ele>
        <time>2020-09-17T07:10:05Z</time>
      </trkpt>
      <trkpt lat="44.471" lon="1.28258">
        <ele>86.18</ele>
        <time>2020-09-17T07:10:23Z</time>
      </trkpt>
      <trkpt lat="44.4708" lon="1.28256">
        <ele>83.29</ele>
        <time>2020-09-17T07:10:43Z</time>
      </trkpt>
      <trkpt lat="44.47058" lon="1.28248">
        <ele>82.33</ele>
        <time>2020-09-17T07:11:03Z</time>
      </trkpt>
      <trkpt lat="44.47037" lon="1.28249">
        <ele>79.45</ele>
        <time>2020-09-17T07:11:23Z</time>
      </trkpt>
      <trkpt lat="44.4702" lon="1.28248">
        <ele>76.08</ele>
        <time>2020-09-17T07:11:41Z</time>
      </trkpt>
      <trkpt lat="44.47005" lon="1.28249">
        <ele>75.6</ele>
        <time>2020-09-17T07:11:57Z</time>
      </trkpt>
      <trkpt lat="44.4699" lon="1.28248">
        <ele>74.16</ele>
        <time>2020-09-17T07:12:10Z</time>
      </trkpt>
      <trkpt lat="44.46976" lon="1.28244">
        <ele>69.83</ele>
        <time>2020-09-17T07:12:26Z</time>
      </trkpt>
      <trkpt lat="44.46963" lon="1.28243">
        <ele>66.47</ele>
        <time>2020-09-17T07:12:41Z</time>
      </trkpt>
      <trkpt lat="44.46945" lon="1.28237">
        <ele>65.51</ele>
        <time>2020-09-17T07:12:58Z</time>
      </trkpt>
      <trkpt lat="44.46928" lon="1.28234">
        <ele>65.99</ele>
        <time>2020-09-17T07:13:13Z</time>
      </trkpt>
      <trkpt lat="44.46908" lon="1.2823">
        <ele>64.07</ele>
        <time>2020-09-17T07:13:29Z</time>
      </trkpt>
      <trkpt lat="44.46893" lon="1.28223">
        <ele>64.07</ele>
        <time>2020-09-17T07:13:43Z</time>
      </trkpt>
      <trkpt lat="44.46875" lon="1.28222">
        <ele>64.55</ele>
        <time>2020-09-17T07:13:59Z</time>
      </trkpt>
      <trkpt lat="44.46854" lon="1.28218">
        <ele>67.43</ele>
        <time>2020-09-17T07:14:16Z</time>
      </trkpt>
      <trkpt lat="44.46839" lon="1.28216">
        <ele>67.43</ele>
        <time>2020-09-17T07:14:31Z</time>
      </trkpt>
      <trkpt lat="44.46825" lon="1.28214">
        <ele>67.91</ele>
        <time>2020-09-17T07:14:44Z</time>
      </trkpt>
      <trkpt lat="44.46802" lon="1.28215">
        <ele>68.39</ele>
        <time>2020-09-17T07:15:03Z</time>
      </trkpt>
      <trkpt lat="44.46786" lon="1.28213">
        <ele>69.83</ele>
        <time>2020-09-17T07:15:18Z</time>
      </trkpt>
      <trkpt lat="44.46769" lon="1.28216">
        <ele>71.76</ele>
        <time>2020-09-17T07:15:33Z</time>
      </trkpt>
      <trkpt lat="44.46749" lon="1.28219">
        <ele>76.08</ele>
        <time>2020-09-17T07:15:49Z</time>
      </trkpt>
      <trkpt lat="44.46733" lon="1.28217">
        <ele>74.64</ele>
        <time>2020-09-17T07:16:06Z</time>
      </trkpt>
      <trkpt lat="44.46716" lon="1.28215">
        <ele>72.24</ele>
        <time>2020-09-17T07:16:23Z</time>
      </trkpt>
      <trkpt lat="44.46698" lon="1.28216">
        <ele>69.83</ele>
        <time>2020-09-17T07:16:41Z</time>
      </trkpt>
      <trkpt lat="44.46681" lon="1.28218">
        <ele>70.79</ele>
        <time>2020-09-17T07:16:57Z</time>
      </trkpt>
      <trkpt lat="44.46664" lon="1.28221">
        <ele>75.12</ele>
        <time>2020-09-17T07:17:13Z</time>
      </trkpt>
      <trkpt lat="44.46656" lon="1.28219">
        <ele>77.04</ele>
        <time>2020-09-17T07:17:28Z</time>
      </trkpt>
      <trkpt lat="44.46639" lon="1.28219">
        <ele>78</ele>
        <time>2020-09-17T07:17:46Z</time>
      </trkpt>
      <trkpt lat="44.46621" lon="1.28222">
        <ele>79.45</ele>
        <time>2020-09-17T07:18:04Z</time>
      </trkpt>
      <trkpt lat="44.46604" lon="1.28229">
        <ele>79.45</ele>
        <time>2020-09-17T07:18:20Z</time>
      </trkpt>
      <trkpt lat="44.46586" lon="1.28235">
        <ele>79.45</ele>
        <time>2020-09-17T07:18:36Z</time>
      </trkpt>
      <trkpt lat="44.46569" lon="1.28242">
        <ele>80.89</ele>
        <time>2020-09-17T07:18:51Z</time>
      </trkpt>
      <trkpt lat="44.46552" lon="1.28252">
        <ele>81.85</ele>
        <time>2020-09-17T07:19:07Z</time>
      </trkpt>
      <trkpt lat="44.46537" lon="1.28262">
        <ele>81.37</ele>
        <time>2020-09-17T07:19:23Z</time>
      </trkpt>
      <trkpt lat="44.46536" lon="1.28263">
        <ele>81.37</ele>
        <time>2020-09-17T07:19:24Z</time>
      </trkpt>
      <trkpt lat="44.46523" lon="1.28272">
        <ele>80.41</ele>
        <time>2020-09-17T07:19:39Z</time>
      </trkpt>
      <trkpt lat="44.46516" lon="1.28271">
        <ele>78</ele>
        <time>2020-09-17T07:19:56Z</time>
      </trkpt>
      <trkpt lat="44.46513" lon="1.28271">
        <ele>82.81</ele>
        <time>2020-09-17T07:20:13Z</time>
      </trkpt>
      <trkpt lat="44.46511" lon="1.2827">
        <ele>84.25</ele>
        <time>2020-09-17T07:20:40Z</time>
      </trkpt>
      <trkpt lat="44.46509" lon="1.28272">
        <ele>83.29</ele>
        <time>2020-09-17T07:20:57Z</time>
      </trkpt>
      <trkpt lat="44.46504" lon="1.28276">
        <ele>83.77</ele>
        <time>2020-09-17T07:21:19Z</time>
      </trkpt>
      <trkpt lat="44.46499" lon="1.28278">
        <ele>85.21</ele>
        <time>2020-09-17T07:21:34Z</time>
      </trkpt>
      <trkpt lat="44.46494" lon="1.28283">
        <ele>86.18</ele>
        <time>2020-09-17T07:21:41Z</time>
      </trkpt>
      <trkpt lat="44.46486" lon="1.28285">
        <ele>88.1</ele>
        <time>2020-09-17T07:21:56Z</time>
      </trkpt>
      <trkpt lat="44.46477" lon="1.28293">
        <ele>90.5</ele>
        <time>2020-09-17T07:22:11Z</time>
      </trkpt>
      <trkpt lat="44.4647" lon="1.28306">
        <ele>91.46</ele>
        <time>2020-09-17T07:22:28Z</time>
      </trkpt>
      <trkpt lat="44.46467" lon="1.28308">
        <ele>90.5</ele>
        <time>2020-09-17T07:22:37Z</time>
      </trkpt>
      <trkpt lat="44.46459" lon="1.28313">
        <ele>89.54</ele>
        <time>2020-09-17T07:22:47Z</time>
      </trkpt>
      <trkpt lat="44.46457" lon="1.28315">
        <ele>90.02</ele>
        <time>2020-09-17T07:22:49Z</time>
      </trkpt>
      <trkpt lat="44.46448" lon="1.28323">
        <ele>91.46</ele>
        <time>2020-09-17T07:23:02Z</time>
      </trkpt>
      <trkpt lat="44.46439" lon="1.28327">
        <ele>89.54</ele>
        <time>2020-09-17T07:23:15Z</time>
      </trkpt>
      <trkpt lat="44.46437" lon="1.28326">
        <ele>84.25</ele>
        <time>2020-09-17T07:23:43Z</time>
      </trkpt>
      <trkpt lat="44.4643" lon="1.28331">
        <ele>86.18</ele>
        <time>2020-09-17T07:24:01Z</time>
      </trkpt>
      <trkpt lat="44.46421" lon="1.28343">
        <ele>88.1</ele>
        <time>2020-09-17T07:24:17Z</time>
      </trkpt>
      <trkpt lat="44.46419" lon="1.28345">
        <ele>88.58</ele>
        <time>2020-09-17T07:24:20Z</time>
      </trkpt>
      <trkpt lat="44.46408" lon="1.28349">
        <ele>89.54</ele>
        <time>2020-09-17T07:24:32Z</time>
      </trkpt>
      <trkpt lat="44.46402" lon="1.28359">
        <ele>91.94</ele>
        <time>2020-09-17T07:24:44Z</time>
      </trkpt>
      <trkpt lat="44.46392" lon="1.28368">
        <ele>92.42</ele>
        <time>2020-09-17T07:24:58Z</time>
      </trkpt>
      <trkpt lat="44.46379" lon="1.28378">
        <ele>91.94</ele>
        <time>2020-09-17T07:25:13Z</time>
      </trkpt>
      <trkpt lat="44.4637" lon="1.28393">
        <ele>92.42</ele>
        <time>2020-09-17T07:25:27Z</time>
      </trkpt>
      <trkpt lat="44.46365" lon="1.28401">
        <ele>89.54</ele>
        <time>2020-09-17T07:25:40Z</time>
      </trkpt>
      <trkpt lat="44.46352" lon="1.28417">
        <ele>87.14</ele>
        <time>2020-09-17T07:25:57Z</time>
      </trkpt>
      <trkpt lat="44.46347" lon="1.28422">
        <ele>87.14</ele>
        <time>2020-09-17T07:26:03Z</time>
      </trkpt>
      <trkpt lat="44.4634" lon="1.28433">
        <ele>88.1</ele>
        <time>2020-09-17T07:26:13Z</time>
      </trkpt>
      <trkpt lat="44.46327" lon="1.28447">
        <ele>88.1</ele>
        <time>2020-09-17T07:26:29Z</time>
      </trkpt>
      <trkpt lat="44.463" lon="1.28489">
        <ele>90.5</ele>
        <time>2020-09-17T07:27:10Z</time>
      </trkpt>
      <trkpt lat="44.46288" lon="1.28502">
        <ele>90.02</ele>
        <time>2020-09-17T07:27:24Z</time>
      </trkpt>
      <trkpt lat="44.46277" lon="1.28516">
        <ele>91.46</ele>
        <time>2020-09-17T07:27:38Z</time>
      </trkpt>
      <trkpt lat="44.4627" lon="1.28526">
        <ele>90.98</ele>
        <time>2020-09-17T07:27:51Z</time>
      </trkpt>
      <trkpt lat="44.46264" lon="1.28541">
        <ele>92.9</ele>
        <time>2020-09-17T07:28:02Z</time>
      </trkpt>
      <trkpt lat="44.46255" lon="1.28554">
        <ele>93.39</ele>
        <time>2020-09-17T07:28:15Z</time>
      </trkpt>
      <trkpt lat="44.46243" lon="1.28566">
        <ele>92.42</ele>
        <time>2020-09-17T07:28:28Z</time>
      </trkpt>
      <trkpt lat="44.46233" lon="1.28581">
        <ele>91.94</ele>
        <time>2020-09-17T07:28:42Z</time>
      </trkpt>
      <trkpt lat="44.46225" lon="1.28594">
        <ele>92.42</ele>
        <time>2020-09-17T07:28:53Z</time>
      </trkpt>
      <trkpt lat="44.46217" lon="1.28605">
        <ele>89.54</ele>
        <time>2020-09-17T07:29:08Z</time>
      </trkpt>
      <trkpt lat="44.46216" lon="1.28609">
        <ele>90.02</ele>
        <time>2020-09-17T07:29:21Z</time>
      </trkpt>
      <trkpt lat="44.46214" lon="1.28615">
        <ele>92.9</ele>
        <time>2020-09-17T07:29:37Z</time>
      </trkpt>
      <trkpt lat="44.46208" lon="1.28625">
        <ele>92.42</ele>
        <time>2020-09-17T07:29:50Z</time>
      </trkpt>
      <trkpt lat="44.46197" lon="1.2864">
        <ele>90.98</ele>
        <time>2020-09-17T07:30:06Z</time>
      </trkpt>
      <trkpt lat="44.46191" lon="1.28656">
        <ele>91.94</ele>
        <time>2020-09-17T07:30:19Z</time>
      </trkpt>
      <trkpt lat="44.46182" lon="1.28672">
        <ele>93.39</ele>
        <time>2020-09-17T07:30:32Z</time>
      </trkpt>
      <trkpt lat="44.46176" lon="1.28689">
        <ele>93.87</ele>
        <time>2020-09-17T07:30:46Z</time>
      </trkpt>
      <trkpt lat="44.46179" lon="1.28705">
        <ele>90.98</ele>
        <time>2020-09-17T07:31:00Z</time>
      </trkpt>
      <trkpt lat="44.46177" lon="1.28725">
        <ele>88.1</ele>
        <time>2020-09-17T07:31:15Z</time>
      </trkpt>
      <trkpt lat="44.46172" lon="1.28744">
        <ele>86.66</ele>
        <time>2020-09-17T07:31:30Z</time>
      </trkpt>
      <trkpt lat="44.46164" lon="1.28766">
        <ele>85.21</ele>
        <time>2020-09-17T07:31:46Z</time>
      </trkpt>
      <trkpt lat="44.4616" lon="1.28786">
        <ele>86.66</ele>
        <time>2020-09-17T07:32:00Z</time>
      </trkpt>
      <trkpt lat="44.46159" lon="1.28794">
        <ele>85.69</ele>
        <time>2020-09-17T07:32:16Z</time>
      </trkpt>
      <trkpt lat="44.46158" lon="1.28806">
        <ele>85.69</ele>
        <time>2020-09-17T07:32:38Z</time>
      </trkpt>
      <trkpt lat="44.46158" lon="1.28806">
        <ele>86.66</ele>
        <time>2020-09-17T07:32:57Z</time>
      </trkpt>
      <trkpt lat="44.46155" lon="1.28814">
        <ele>84.73</ele>
        <time>2020-09-17T07:33:14Z</time>
      </trkpt>
      <trkpt lat="44.46151" lon="1.28831">
        <ele>88.1</ele>
        <time>2020-09-17T07:33:31Z</time>
      </trkpt>
      <trkpt lat="44.46146" lon="1.28841">
        <ele>90.5</ele>
        <time>2020-09-17T07:33:44Z</time>
      </trkpt>
      <trkpt lat="44.46142" lon="1.28837">
        <ele>90.98</ele>
        <time>2020-09-17T07:34:03Z</time>
      </trkpt>
      <trkpt lat="44.46144" lon="1.28826">
        <ele>90.5</ele>
        <time>2020-09-17T07:34:29Z</time>
      </trkpt>
      <trkpt lat="44.46143" lon="1.28831">
        <ele>92.42</ele>
        <time>2020-09-17T07:34:51Z</time>
      </trkpt>
      <trkpt lat="44.46135" lon="1.28848">
        <ele>91.46</ele>
        <time>2020-09-17T07:35:07Z</time>
      </trkpt>
      <trkpt lat="44.46126" lon="1.28859">
        <ele>91.46</ele>
        <time>2020-09-17T07:35:21Z</time>
      </trkpt>
      <trkpt lat="44.46116" lon="1.28868">
        <ele>89.06</ele>
        <time>2020-09-17T07:35:35Z</time>
      </trkpt>
      <trkpt lat="44.46109" lon="1.28882">
        <ele>83.77</ele>
        <time>2020-09-17T07:35:51Z</time>
      </trkpt>
      <trkpt lat="44.461" lon="1.28897">
        <ele>82.81</ele>
        <time>2020-09-17T07:36:06Z</time>
      </trkpt>
      <trkpt lat="44.46087" lon="1.28903">
        <ele>83.29</ele>
        <time>2020-09-17T07:36:19Z</time>
      </trkpt>
      <trkpt lat="44.46074" lon="1.28899">
        <ele>79.45</ele>
        <time>2020-09-17T07:36:35Z</time>
      </trkpt>
      <trkpt lat="44.46059" lon="1.28892">
        <ele>85.69</ele>
        <time>2020-09-17T07:36:49Z</time>
      </trkpt>
      <trkpt lat="44.46048" lon="1.28877">
        <ele>88.1</ele>
        <time>2020-09-17T07:37:04Z</time>
      </trkpt>
      <trkpt lat="44.46038" lon="1.28871">
        <ele>90.5</ele>
        <time>2020-09-17T07:37:18Z</time>
      </trkpt>
      <trkpt lat="44.46035" lon="1.28869">
        <ele>98.19</ele>
        <time>2020-09-17T07:37:44Z</time>
      </trkpt>
      <trkpt lat="44.46028" lon="1.28863">
        <ele>102.04</ele>
        <time>2020-09-17T07:38:01Z</time>
      </trkpt>
      <trkpt lat="44.4602" lon="1.28862">
        <ele>102.52</ele>
        <time>2020-09-17T07:38:22Z</time>
      </trkpt>
      <trkpt lat="44.46005" lon="1.28859">
        <ele>103.96</ele>
        <time>2020-09-17T07:38:40Z</time>
      </trkpt>
      <trkpt lat="44.45989" lon="1.28855">
        <ele>104.44</ele>
        <time>2020-09-17T07:38:57Z</time>
      </trkpt>
      <trkpt lat="44.45976" lon="1.2885">
        <ele>103.96</ele>
        <time>2020-09-17T07:39:13Z</time>
      </trkpt>
      <trkpt lat="44.45966" lon="1.28836">
        <ele>103</ele>
        <time>2020-09-17T07:39:29Z</time>
      </trkpt>
      <trkpt lat="44.4595" lon="1.28826">
        <ele>103.48</ele>
        <time>2020-09-17T07:39:46Z</time>
      </trkpt>
      <trkpt lat="44.4594" lon="1.28809">
        <ele>105.88</ele>
        <time>2020-09-17T07:40:02Z</time>
      </trkpt>
      <trkpt lat="44.45936" lon="1.28789">
        <ele>108.77</ele>
        <time>2020-09-17T07:40:19Z</time>
      </trkpt>
      <trkpt lat="44.4593" lon="1.28769">
        <ele>108.77</ele>
        <time>2020-09-17T07:40:36Z</time>
      </trkpt>
      <trkpt lat="44.45921" lon="1.28753">
        <ele>103.96</ele>
        <time>2020-09-17T07:40:56Z</time>
      </trkpt>
      <trkpt lat="44.45907" lon="1.28743">
        <ele>105.4</ele>
        <time>2020-09-17T07:41:14Z</time>
      </trkpt>
      <trkpt lat="44.45892" lon="1.28732">
        <ele>107.32</ele>
        <time>2020-09-17T07:41:31Z</time>
      </trkpt>
      <trkpt lat="44.4588" lon="1.28714">
        <ele>113.57</ele>
        <time>2020-09-17T07:41:51Z</time>
      </trkpt>
      <trkpt lat="44.4587" lon="1.28698">
        <ele>116.94</ele>
        <time>2020-09-17T07:42:09Z</time>
      </trkpt>
      <trkpt lat="44.45861" lon="1.28689">
        <ele>115.98</ele>
        <time>2020-09-17T07:42:26Z</time>
      </trkpt>
      <trkpt lat="44.45851" lon="1.28675">
        <ele>118.38</ele>
        <time>2020-09-17T07:42:40Z</time>
      </trkpt>
      <trkpt lat="44.45839" lon="1.28666">
        <ele>122.22</ele>
        <time>2020-09-17T07:42:55Z</time>
      </trkpt>
      <trkpt lat="44.45826" lon="1.28652">
        <ele>127.03</ele>
        <time>2020-09-17T07:43:14Z</time>
      </trkpt>
      <trkpt lat="44.45811" lon="1.28641">
        <ele>127.99</ele>
        <time>2020-09-17T07:43:34Z</time>
      </trkpt>
      <trkpt lat="44.45804" lon="1.28632">
        <ele>129.92</ele>
        <time>2020-09-17T07:43:50Z</time>
      </trkpt>
      <trkpt lat="44.45804" lon="1.28637">
        <ele>129.92</ele>
        <time>2020-09-17T07:44:12Z</time>
      </trkpt>
      <trkpt lat="44.45802" lon="1.28634">
        <ele>130.88</ele>
        <time>2020-09-17T07:44:34Z</time>
      </trkpt>
      <trkpt lat="44.45794" lon="1.28624">
        <ele>131.84</ele>
        <time>2020-09-17T07:44:52Z</time>
      </trkpt>
      <trkpt lat="44.45782" lon="1.28613">
        <ele>131.36</ele>
        <time>2020-09-17T07:45:09Z</time>
      </trkpt>
      <trkpt lat="44.45768" lon="1.28605">
        <ele>135.68</ele>
        <time>2020-09-17T07:45:25Z</time>
      </trkpt>
      <trkpt lat="44.45755" lon="1.28602">
        <ele>140.01</ele>
        <time>2020-09-17T07:45:41Z</time>
      </trkpt>
      <trkpt lat="44.45745" lon="1.28605">
        <ele>143.37</ele>
        <time>2020-09-17T07:45:58Z</time>
      </trkpt>
      <trkpt lat="44.45737" lon="1.28609">
        <ele>145.3</ele>
        <time>2020-09-17T07:46:12Z</time>
      </trkpt>
      <trkpt lat="44.45726" lon="1.2861">
        <ele>147.7</ele>
        <time>2020-09-17T07:46:29Z</time>
      </trkpt>
      <trkpt lat="44.45713" lon="1.28614">
        <ele>151.06</ele>
        <time>2020-09-17T07:46:45Z</time>
      </trkpt>
      <trkpt lat="44.45703" lon="1.2861">
        <ele>152.51</ele>
        <time>2020-09-17T07:46:59Z</time>
      </trkpt>
      <trkpt lat="44.45692" lon="1.28603">
        <ele>150.1</ele>
        <time>2020-09-17T07:47:16Z</time>
      </trkpt>
      <trkpt lat="44.4568" lon="1.28593">
        <ele>148.66</ele>
        <time>2020-09-17T07:47:31Z</time>
      </trkpt>
      <trkpt lat="44.45665" lon="1.28579">
        <ele>149.14</ele>
        <time>2020-09-17T07:47:48Z</time>
      </trkpt>
      <trkpt lat="44.45648" lon="1.28568">
        <ele>152.03</ele>
        <time>2020-09-17T07:48:06Z</time>
      </trkpt>
      <trkpt lat="44.45635" lon="1.28561">
        <ele>155.39</ele>
        <time>2020-09-17T07:48:22Z</time>
      </trkpt>
      <trkpt lat="44.45623" lon="1.28552">
        <ele>154.43</ele>
        <time>2020-09-17T07:48:39Z</time>
      </trkpt>
      <trkpt lat="44.45606" lon="1.28545">
        <ele>155.39</ele>
        <time>2020-09-17T07:48:55Z</time>
      </trkpt>
      <trkpt lat="44.45595" lon="1.28537">
        <ele>157.79</ele>
        <time>2020-09-17T07:49:09Z</time>
      </trkpt>
      <trkpt lat="44.45593" lon="1.28537">
        <ele>158.27</ele>
        <time>2020-09-17T07:49:29Z</time>
      </trkpt>
      <trkpt lat="44.45587" lon="1.28532">
        <ele>160.2</ele>
        <time>2020-09-17T07:49:55Z</time>
      </trkpt>
      <trkpt lat="44.45585" lon="1.28535">
        <ele>163.08</ele>
        <time>2020-09-17T07:50:28Z</time>
      </trkpt>
      <trkpt lat="44.45584" lon="1.28532">
        <ele>167.41</ele>
        <time>2020-09-17T07:50:48Z</time>
      </trkpt>
      <trkpt lat="44.45572" lon="1.2853">
        <ele>170.77</ele>
        <time>2020-09-17T07:51:05Z</time>
      </trkpt>
      <trkpt lat="44.45562" lon="1.28528">
        <ele>171.73</ele>
        <time>2020-09-17T07:51:20Z</time>
      </trkpt>
      <trkpt lat="44.45546" lon="1.28524">
        <ele>169.81</ele>
        <time>2020-09-17T07:51:40Z</time>
      </trkpt>
      <trkpt lat="44.45533" lon="1.28522">
        <ele>166.93</ele>
        <time>2020-09-17T07:51:58Z</time>
      </trkpt>
      <trkpt lat="44.45519" lon="1.28513">
        <ele>167.41</ele>
        <time>2020-09-17T07:52:15Z</time>
      </trkpt>
      <trkpt lat="44.45504" lon="1.28509">
        <ele>166.45</ele>
        <time>2020-09-17T07:52:32Z</time>
      </trkpt>
      <trkpt lat="44.45489" lon="1.28503">
        <ele>168.85</ele>
        <time>2020-09-17T07:52:49Z</time>
      </trkpt>
      <trkpt lat="44.45475" lon="1.28497">
        <ele>171.25</ele>
        <time>2020-09-17T07:53:05Z</time>
      </trkpt>
      <trkpt lat="44.45464" lon="1.28491">
        <ele>174.62</ele>
        <time>2020-09-17T07:53:19Z</time>
      </trkpt>
      <trkpt lat="44.45452" lon="1.28485">
        <ele>180.87</ele>
        <time>2020-09-17T07:53:34Z</time>
      </trkpt>
      <trkpt lat="44.4544" lon="1.28477">
        <ele>183.27</ele>
        <time>2020-09-17T07:53:49Z</time>
      </trkpt>
      <trkpt lat="44.45426" lon="1.28468">
        <ele>183.27</ele>
        <time>2020-09-17T07:54:06Z</time>
      </trkpt>
      <trkpt lat="44.45414" lon="1.28468">
        <ele>185.19</ele>
        <time>2020-09-17T07:54:22Z</time>
      </trkpt>
      <trkpt lat="44.45402" lon="1.28467">
        <ele>187.59</ele>
        <time>2020-09-17T07:54:40Z</time>
      </trkpt>
      <trkpt lat="44.4539" lon="1.2846">
        <ele>190</ele>
        <time>2020-09-17T07:54:54Z</time>
      </trkpt>
      <trkpt lat="44.45377" lon="1.28454">
        <ele>191.92</ele>
        <time>2020-09-17T07:55:09Z</time>
      </trkpt>
      <trkpt lat="44.45365" lon="1.2844">
        <ele>190.96</ele>
        <time>2020-09-17T07:55:26Z</time>
      </trkpt>
      <trkpt lat="44.45355" lon="1.28426">
        <ele>188.56</ele>
        <time>2020-09-17T07:55:44Z</time>
      </trkpt>
      <trkpt lat="44.45342" lon="1.28412">
        <ele>185.19</ele>
        <time>2020-09-17T07:56:01Z</time>
      </trkpt>
      <trkpt lat="44.45332" lon="1.28399">
        <ele>181.83</ele>
        <time>2020-09-17T07:56:18Z</time>
      </trkpt>
      <trkpt lat="44.45323" lon="1.28386">
        <ele>179.9</ele>
        <time>2020-09-17T07:56:34Z</time>
      </trkpt>
      <trkpt lat="44.45308" lon="1.28368">
        <ele>182.31</ele>
        <time>2020-09-17T07:56:53Z</time>
      </trkpt>
      <trkpt lat="44.45296" lon="1.28356">
        <ele>187.11</ele>
        <time>2020-09-17T07:57:11Z</time>
      </trkpt>
      <trkpt lat="44.45289" lon="1.28342">
        <ele>189.52</ele>
        <time>2020-09-17T07:57:27Z</time>
      </trkpt>
      <trkpt lat="44.4528" lon="1.28329">
        <ele>193.36</ele>
        <time>2020-09-17T07:57:45Z</time>
      </trkpt>
      <trkpt lat="44.45268" lon="1.28318">
        <ele>196.73</ele>
        <time>2020-09-17T07:58:07Z</time>
      </trkpt>
      <trkpt lat="44.45261" lon="1.28315">
        <ele>204.42</ele>
        <time>2020-09-17T07:58:33Z</time>
      </trkpt>
      <trkpt lat="44.45253" lon="1.28311">
        <ele>206.82</ele>
        <time>2020-09-17T07:58:50Z</time>
      </trkpt>
      <trkpt lat="44.45242" lon="1.28309">
        <ele>211.15</ele>
        <time>2020-09-17T07:59:12Z</time>
      </trkpt>
      <trkpt lat="44.45245" lon="1.28302">
        <ele>217.88</ele>
        <time>2020-09-17T07:59:35Z</time>
      </trkpt>
      <trkpt lat="44.45237" lon="1.28294">
        <ele>218.36</ele>
        <time>2020-09-17T07:59:53Z</time>
      </trkpt>
      <trkpt lat="44.4523" lon="1.28294">
        <ele>220.28</ele>
        <time>2020-09-17T08:00:12Z</time>
      </trkpt>
      <trkpt lat="44.45226" lon="1.28291">
        <ele>227.97</ele>
        <time>2020-09-17T08:00:32Z</time>
      </trkpt>
      <trkpt lat="44.4522" lon="1.28286">
        <ele>230.37</ele>
        <time>2020-09-17T08:00:51Z</time>
      </trkpt>
      <trkpt lat="44.45213" lon="1.28284">
        <ele>230.37</ele>
        <time>2020-09-17T08:01:09Z</time>
      </trkpt>
      <trkpt lat="44.45208" lon="1.28281">
        <ele>229.89</ele>
        <time>2020-09-17T08:01:27Z</time>
      </trkpt>
      <trkpt lat="44.45211" lon="1.2828">
        <ele>232.78</ele>
        <time>2020-09-17T08:01:45Z</time>
      </trkpt>
      <trkpt lat="44.45209" lon="1.28287">
        <ele>235.18</ele>
        <time>2020-09-17T08:02:00Z</time>
      </trkpt>
      <trkpt lat="44.45211" lon="1.28294">
        <ele>238.06</ele>
        <time>2020-09-17T08:02:18Z</time>
      </trkpt>
      <trkpt lat="44.45199" lon="1.28292">
        <ele>239.51</ele>
        <time>2020-09-17T08:02:37Z</time>
      </trkpt>
      <trkpt lat="44.45194" lon="1.28286">
        <ele>239.51</ele>
        <time>2020-09-17T08:02:52Z</time>
      </trkpt>
      <trkpt lat="44.4519" lon="1.28283">
        <ele>241.43</ele>
        <time>2020-09-17T08:03:08Z</time>
      </trkpt>
      <trkpt lat="44.45185" lon="1.28275">
        <ele>242.39</ele>
        <time>2020-09-17T08:03:25Z</time>
      </trkpt>
      <trkpt lat="44.45191" lon="1.28285">
        <ele>241.91</ele>
        <time>2020-09-17T08:03:41Z</time>
      </trkpt>
      <trkpt lat="44.45191" lon="1.28297">
        <ele>246.72</ele>
        <time>2020-09-17T08:04:07Z</time>
      </trkpt>
      <trkpt lat="44.45195" lon="1.28308">
        <ele>249.12</ele>
        <time>2020-09-17T08:04:22Z</time>
      </trkpt>
      <trkpt lat="44.45195" lon="1.28314">
        <ele>250.56</ele>
        <time>2020-09-17T08:04:51Z</time>
      </trkpt>
      <trkpt lat="44.45192" lon="1.28312">
        <ele>250.56</ele>
        <time>2020-09-17T08:05:21Z</time>
      </trkpt>
      <trkpt lat="44.45196" lon="1.28315">
        <ele>253.44</ele>
        <time>2020-09-17T08:05:55Z</time>
      </trkpt>
      <trkpt lat="44.45188" lon="1.28318">
        <ele>252.96</ele>
        <time>2020-09-17T08:06:16Z</time>
      </trkpt>
      <trkpt lat="44.45183" lon="1.28317">
        <ele>253.93</ele>
        <time>2020-09-17T08:06:32Z</time>
      </trkpt>
      <trkpt lat="44.45172" lon="1.28301">
        <ele>250.56</ele>
        <time>2020-09-17T08:06:50Z</time>
      </trkpt>
      <trkpt lat="44.45165" lon="1.28292">
        <ele>251.04</ele>
        <time>2020-09-17T08:07:06Z</time>
      </trkpt>
      <trkpt lat="44.45162" lon="1.28299">
        <ele>254.89</ele>
        <time>2020-09-17T08:07:20Z</time>
      </trkpt>
      <trkpt lat="44.45166" lon="1.28314">
        <ele>257.77</ele>
        <time>2020-09-17T08:07:40Z</time>
      </trkpt>
      <trkpt lat="44.45166" lon="1.28329">
        <ele>260.17</ele>
        <time>2020-09-17T08:07:56Z</time>
      </trkpt>
      <trkpt lat="44.45158" lon="1.28317">
        <ele>258.25</ele>
        <time>2020-09-17T08:08:13Z</time>
      </trkpt>
      <trkpt lat="44.45159" lon="1.28315">
        <ele>258.25</ele>
        <time>2020-09-17T08:08:39Z</time>
      </trkpt>
      <trkpt lat="44.45153" lon="1.2831">
        <ele>260.17</ele>
        <time>2020-09-17T08:08:59Z</time>
      </trkpt>
      <trkpt lat="44.45144" lon="1.28305">
        <ele>261.14</ele>
        <time>2020-09-17T08:09:16Z</time>
      </trkpt>
      <trkpt lat="44.45134" lon="1.283">
        <ele>262.1</ele>
        <time>2020-09-17T08:09:33Z</time>
      </trkpt>
      <trkpt lat="44.45122" lon="1.28301">
        <ele>261.62</ele>
        <time>2020-09-17T08:09:50Z</time>
      </trkpt>
      <trkpt lat="44.45108" lon="1.28304">
        <ele>264.98</ele>
        <time>2020-09-17T08:10:06Z</time>
      </trkpt>
      <trkpt lat="44.45097" lon="1.28306">
        <ele>269.31</ele>
        <time>2020-09-17T08:10:22Z</time>
      </trkpt>
      <trkpt lat="44.45088" lon="1.28309">
        <ele>274.59</ele>
        <time>2020-09-17T08:10:38Z</time>
      </trkpt>
      <trkpt lat="44.4508" lon="1.28304">
        <ele>274.59</ele>
        <time>2020-09-17T08:10:54Z</time>
      </trkpt>
      <trkpt lat="44.45071" lon="1.28295">
        <ele>275.07</ele>
        <time>2020-09-17T08:11:12Z</time>
      </trkpt>
      <trkpt lat="44.45073" lon="1.28293">
        <ele>278.92</ele>
        <time>2020-09-17T08:11:31Z</time>
      </trkpt>
      <trkpt lat="44.45071" lon="1.28295">
        <ele>278.92</ele>
        <time>2020-09-17T08:11:51Z</time>
      </trkpt>
      <trkpt lat="44.4507" lon="1.28299">
        <ele>278.44</ele>
        <time>2020-09-17T08:12:14Z</time>
      </trkpt>
      <trkpt lat="44.45072" lon="1.28301">
        <ele>278.92</ele>
        <time>2020-09-17T08:12:18Z</time>
      </trkpt>
      <trkpt lat="44.45085" lon="1.28306">
        <ele>277.96</ele>
        <time>2020-09-17T08:12:33Z</time>
      </trkpt>
      <trkpt lat="44.45088" lon="1.28304">
        <ele>275.07</ele>
        <time>2020-09-17T08:12:52Z</time>
      </trkpt>
      <trkpt lat="44.45086" lon="1.28308">
        <ele>275.56</ele>
        <time>2020-09-17T08:13:16Z</time>
      </trkpt>
      <trkpt lat="44.45085" lon="1.28306">
        <ele>283.25</ele>
        <time>2020-09-17T08:13:44Z</time>
      </trkpt>
      <trkpt lat="44.45079" lon="1.28298">
        <ele>279.4</ele>
        <time>2020-09-17T08:13:59Z</time>
      </trkpt>
      <trkpt lat="44.45073" lon="1.28294">
        <ele>279.88</ele>
        <time>2020-09-17T08:14:14Z</time>
      </trkpt>
      <trkpt lat="44.45071" lon="1.28293">
        <ele>279.4</ele>
        <time>2020-09-17T08:14:30Z</time>
      </trkpt>
      <trkpt lat="44.45063" lon="1.28285">
        <ele>280.36</ele>
        <time>2020-09-17T08:14:44Z</time>
      </trkpt>
      <trkpt lat="44.45056" lon="1.28287">
        <ele>279.4</ele>
        <time>2020-09-17T08:15:00Z</time>
      </trkpt>
      <trkpt lat="44.45056" lon="1.28281">
        <ele>281.8</ele>
        <time>2020-09-17T08:15:34Z</time>
      </trkpt>
      <trkpt lat="44.45055" lon="1.2828">
        <ele>283.73</ele>
        <time>2020-09-17T08:16:03Z</time>
      </trkpt>
      <trkpt lat="44.45054" lon="1.28282">
        <ele>283.73</ele>
        <time>2020-09-17T08:16:29Z</time>
      </trkpt>
      <trkpt lat="44.45053" lon="1.28278">
        <ele>283.25</ele>
        <time>2020-09-17T08:16:42Z</time>
      </trkpt>
      <trkpt lat="44.45051" lon="1.28276">
        <ele>283.25</ele>
        <time>2020-09-17T08:16:44Z</time>
      </trkpt>
      <trkpt lat="44.4504" lon="1.28278">
        <ele>283.73</ele>
        <time>2020-09-17T08:16:59Z</time>
      </trkpt>
      <trkpt lat="44.45028" lon="1.28275">
        <ele>285.65</ele>
        <time>2020-09-17T08:17:15Z</time>
      </trkpt>
      <trkpt lat="44.45017" lon="1.28275">
        <ele>287.09</ele>
        <time>2020-09-17T08:17:31Z</time>
      </trkpt>
      <trkpt lat="44.45006" lon="1.2828">
        <ele>287.09</ele>
        <time>2020-09-17T08:17:47Z</time>
      </trkpt>
      <trkpt lat="44.44994" lon="1.28282">
        <ele>289.01</ele>
        <time>2020-09-17T08:18:03Z</time>
      </trkpt>
      <trkpt lat="44.44984" lon="1.28286">
        <ele>292.38</ele>
        <time>2020-09-17T08:18:16Z</time>
      </trkpt>
      <trkpt lat="44.44978" lon="1.28288">
        <ele>293.34</ele>
        <time>2020-09-17T08:18:30Z</time>
      </trkpt>
      <trkpt lat="44.44973" lon="1.28275">
        <ele>296.7</ele>
        <time>2020-09-17T08:18:47Z</time>
      </trkpt>
      <trkpt lat="44.44973" lon="1.28254">
        <ele>295.74</ele>
        <time>2020-09-17T08:19:03Z</time>
      </trkpt>
      <trkpt lat="44.44971" lon="1.28244">
        <ele>295.74</ele>
        <time>2020-09-17T08:19:17Z</time>
      </trkpt>
      <trkpt lat="44.44972" lon="1.28244">
        <ele>296.7</ele>
        <time>2020-09-17T08:19:51Z</time>
      </trkpt>
      <trkpt lat="44.44972" lon="1.28246">
        <ele>297.67</ele>
        <time>2020-09-17T08:20:28Z</time>
      </trkpt>
      <trkpt lat="44.44968" lon="1.28234">
        <ele>298.63</ele>
        <time>2020-09-17T08:20:52Z</time>
      </trkpt>
      <trkpt lat="44.44962" lon="1.28226">
        <ele>300.55</ele>
        <time>2020-09-17T08:21:05Z</time>
      </trkpt>
      <trkpt lat="44.44962" lon="1.28196">
        <ele>301.99</ele>
        <time>2020-09-17T08:21:25Z</time>
      </trkpt>
      <trkpt lat="44.44968" lon="1.28177">
        <ele>301.99</ele>
        <time>2020-09-17T08:21:40Z</time>
      </trkpt>
      <trkpt lat="44.44977" lon="1.2816">
        <ele>297.67</ele>
        <time>2020-09-17T08:21:57Z</time>
      </trkpt>
      <trkpt lat="44.44986" lon="1.28136">
        <ele>295.74</ele>
        <time>2020-09-17T08:22:16Z</time>
      </trkpt>
      <trkpt lat="44.44989" lon="1.28115">
        <ele>295.74</ele>
        <time>2020-09-17T08:22:33Z</time>
      </trkpt>
      <trkpt lat="44.44989" lon="1.28094">
        <ele>296.7</ele>
        <time>2020-09-17T08:22:51Z</time>
      </trkpt>
      <trkpt lat="44.4499" lon="1.28075">
        <ele>295.26</ele>
        <time>2020-09-17T08:23:08Z</time>
      </trkpt>
      <trkpt lat="44.44993" lon="1.28055">
        <ele>293.34</ele>
        <time>2020-09-17T08:23:24Z</time>
      </trkpt>
      <trkpt lat="44.44998" lon="1.28034">
        <ele>294.3</ele>
        <time>2020-09-17T08:23:41Z</time>
      </trkpt>
      <trkpt lat="44.45001" lon="1.28015">
        <ele>296.22</ele>
        <time>2020-09-17T08:23:56Z</time>
      </trkpt>
      <trkpt lat="44.45001" lon="1.27994">
        <ele>299.11</ele>
        <time>2020-09-17T08:24:12Z</time>
      </trkpt>
      <trkpt lat="44.44999" lon="1.27983">
        <ele>303.43</ele>
        <time>2020-09-17T08:24:28Z</time>
      </trkpt>
      <trkpt lat="44.44999" lon="1.27984">
        <ele>308.72</ele>
        <time>2020-09-17T08:24:54Z</time>
      </trkpt>
      <trkpt lat="44.44999" lon="1.27982">
        <ele>313.05</ele>
        <time>2020-09-17T08:25:20Z</time>
      </trkpt>
      <trkpt lat="44.44998" lon="1.27981">
        <ele>316.89</ele>
        <time>2020-09-17T08:25:49Z</time>
      </trkpt>
      <trkpt lat="44.44996" lon="1.27979">
        <ele>320.74</ele>
        <time>2020-09-17T08:26:18Z</time>
      </trkpt>
      <trkpt lat="44.44999" lon="1.27962">
        <ele>318.33</ele>
        <time>2020-09-17T08:26:35Z</time>
      </trkpt>
      <trkpt lat="44.45003" lon="1.27942">
        <ele>315.45</ele>
        <time>2020-09-17T08:26:53Z</time>
      </trkpt>
      <trkpt lat="44.45009" lon="1.27921">
        <ele>312.57</ele>
        <time>2020-09-17T08:27:11Z</time>
      </trkpt>
      <trkpt lat="44.45013" lon="1.27896">
        <ele>309.2</ele>
        <time>2020-09-17T08:27:29Z</time>
      </trkpt>
      <trkpt lat="44.45017" lon="1.27867">
        <ele>307.76</ele>
        <time>2020-09-17T08:27:48Z</time>
      </trkpt>
      <trkpt lat="44.45021" lon="1.27843">
        <ele>308.24</ele>
        <time>2020-09-17T08:28:05Z</time>
      </trkpt>
      <trkpt lat="44.4503" lon="1.27826">
        <ele>309.68</ele>
        <time>2020-09-17T08:28:22Z</time>
      </trkpt>
      <trkpt lat="44.4505" lon="1.2782">
        <ele>312.09</ele>
        <time>2020-09-17T08:28:42Z</time>
      </trkpt>
      <trkpt lat="44.45063" lon="1.27818">
        <ele>314.01</ele>
        <time>2020-09-17T08:28:56Z</time>
      </trkpt>
      <trkpt lat="44.45075" lon="1.27817">
        <ele>314.49</ele>
        <time>2020-09-17T08:29:14Z</time>
      </trkpt>
      <trkpt lat="44.4508" lon="1.27816">
        <ele>314.01</ele>
        <time>2020-09-17T08:29:20Z</time>
      </trkpt>
      <trkpt lat="44.45095" lon="1.27815">
        <ele>315.45</ele>
        <time>2020-09-17T08:29:37Z</time>
      </trkpt>
      <trkpt lat="44.45109" lon="1.27812">
        <ele>316.41</ele>
        <time>2020-09-17T08:29:52Z</time>
      </trkpt>
      <trkpt lat="44.45115" lon="1.278">
        <ele>315.45</ele>
        <time>2020-09-17T08:30:05Z</time>
      </trkpt>
      <trkpt lat="44.4511" lon="1.27778">
        <ele>315.45</ele>
        <time>2020-09-17T08:30:23Z</time>
      </trkpt>
      <trkpt lat="44.4511" lon="1.27775">
        <ele>315.45</ele>
        <time>2020-09-17T08:30:25Z</time>
      </trkpt>
      <trkpt lat="44.45117" lon="1.27756">
        <ele>315.93</ele>
        <time>2020-09-17T08:30:40Z</time>
      </trkpt>
      <trkpt lat="44.45124" lon="1.27749">
        <ele>315.93</ele>
        <time>2020-09-17T08:30:47Z</time>
      </trkpt>
      <trkpt lat="44.45143" lon="1.27738">
        <ele>318.33</ele>
        <time>2020-09-17T08:31:06Z</time>
      </trkpt>
      <trkpt lat="44.45144" lon="1.27737">
        <ele>318.33</ele>
        <time>2020-09-17T08:31:07Z</time>
      </trkpt>
      <trkpt lat="44.45153" lon="1.27741">
        <ele>319.78</ele>
        <time>2020-09-17T08:31:16Z</time>
      </trkpt>
      <trkpt lat="44.45169" lon="1.27748">
        <ele>319.78</ele>
        <time>2020-09-17T08:31:33Z</time>
      </trkpt>
      <trkpt lat="44.45177" lon="1.27744">
        <ele>319.3</ele>
        <time>2020-09-17T08:31:41Z</time>
      </trkpt>
      <trkpt lat="44.45187" lon="1.2774">
        <ele>317.37</ele>
        <time>2020-09-17T08:31:59Z</time>
      </trkpt>
      <trkpt lat="44.45197" lon="1.2773">
        <ele>312.57</ele>
        <time>2020-09-17T08:32:16Z</time>
      </trkpt>
      <trkpt lat="44.45199" lon="1.27724">
        <ele>310.16</ele>
        <time>2020-09-17T08:32:34Z</time>
      </trkpt>
      <trkpt lat="44.45203" lon="1.2773">
        <ele>309.2</ele>
        <time>2020-09-17T08:32:48Z</time>
      </trkpt>
      <trkpt lat="44.45207" lon="1.27742">
        <ele>307.28</ele>
        <time>2020-09-17T08:33:04Z</time>
      </trkpt>
      <trkpt lat="44.45209" lon="1.27753">
        <ele>306.32</ele>
        <time>2020-09-17T08:33:20Z</time>
      </trkpt>
      <trkpt lat="44.45208" lon="1.27756">
        <ele>307.28</ele>
        <time>2020-09-17T08:33:39Z</time>
      </trkpt>
      <trkpt lat="44.45212" lon="1.27763">
        <ele>307.76</ele>
        <time>2020-09-17T08:33:56Z</time>
      </trkpt>
      <trkpt lat="44.45222" lon="1.27774">
        <ele>305.84</ele>
        <time>2020-09-17T08:34:12Z</time>
      </trkpt>
      <trkpt lat="44.45232" lon="1.27766">
        <ele>303.43</ele>
        <time>2020-09-17T08:34:25Z</time>
      </trkpt>
      <trkpt lat="44.45242" lon="1.27746">
        <ele>296.22</ele>
        <time>2020-09-17T08:34:43Z</time>
      </trkpt>
      <trkpt lat="44.45248" lon="1.27725">
        <ele>290.46</ele>
        <time>2020-09-17T08:35:00Z</time>
      </trkpt>
      <trkpt lat="44.45254" lon="1.27702">
        <ele>289.01</ele>
        <time>2020-09-17T08:35:18Z</time>
      </trkpt>
      <trkpt lat="44.45259" lon="1.27688">
        <ele>289.97</ele>
        <time>2020-09-17T08:35:35Z</time>
      </trkpt>
      <trkpt lat="44.45267" lon="1.27675">
        <ele>290.46</ele>
        <time>2020-09-17T08:35:51Z</time>
      </trkpt>
      <trkpt lat="44.4527" lon="1.27667">
        <ele>291.42</ele>
        <time>2020-09-17T08:36:07Z</time>
      </trkpt>
      <trkpt lat="44.45272" lon="1.27664">
        <ele>292.86</ele>
        <time>2020-09-17T08:36:32Z</time>
      </trkpt>
      <trkpt lat="44.45263" lon="1.27649">
        <ele>292.86</ele>
        <time>2020-09-17T08:36:49Z</time>
      </trkpt>
      <trkpt lat="44.45261" lon="1.27634">
        <ele>292.86</ele>
        <time>2020-09-17T08:37:05Z</time>
      </trkpt>
      <trkpt lat="44.45262" lon="1.27605">
        <ele>288.53</ele>
        <time>2020-09-17T08:37:25Z</time>
      </trkpt>
      <trkpt lat="44.45269" lon="1.27582">
        <ele>286.61</ele>
        <time>2020-09-17T08:37:43Z</time>
      </trkpt>
      <trkpt lat="44.45277" lon="1.27566">
        <ele>286.61</ele>
        <time>2020-09-17T08:37:57Z</time>
      </trkpt>
      <trkpt lat="44.45287" lon="1.2755">
        <ele>288.05</ele>
        <time>2020-09-17T08:38:12Z</time>
      </trkpt>
      <trkpt lat="44.45296" lon="1.27536">
        <ele>290.94</ele>
        <time>2020-09-17T08:38:27Z</time>
      </trkpt>
      <trkpt lat="44.45304" lon="1.27536">
        <ele>292.86</ele>
        <time>2020-09-17T08:38:37Z</time>
      </trkpt>
      <trkpt lat="44.4532" lon="1.27543">
        <ele>296.22</ele>
        <time>2020-09-17T08:38:55Z</time>
      </trkpt>
      <trkpt lat="44.45322" lon="1.27537">
        <ele>296.22</ele>
        <time>2020-09-17T08:39:10Z</time>
      </trkpt>
      <trkpt lat="44.45312" lon="1.27528">
        <ele>294.3</ele>
        <time>2020-09-17T08:39:24Z</time>
      </trkpt>
      <trkpt lat="44.45297" lon="1.27507">
        <ele>293.34</ele>
        <time>2020-09-17T08:39:46Z</time>
      </trkpt>
      <trkpt lat="44.45293" lon="1.27495">
        <ele>293.34</ele>
        <time>2020-09-17T08:40:03Z</time>
      </trkpt>
      <trkpt lat="44.45292" lon="1.27496">
        <ele>295.26</ele>
        <time>2020-09-17T08:40:31Z</time>
      </trkpt>
      <trkpt lat="44.45291" lon="1.27492">
        <ele>292.86</ele>
        <time>2020-09-17T08:40:52Z</time>
      </trkpt>
      <trkpt lat="44.45292" lon="1.27482">
        <ele>290.94</ele>
        <time>2020-09-17T08:41:14Z</time>
      </trkpt>
      <trkpt lat="44.45296" lon="1.27464">
        <ele>289.49</ele>
        <time>2020-09-17T08:41:32Z</time>
      </trkpt>
      <trkpt lat="44.453" lon="1.27445">
        <ele>289.49</ele>
        <time>2020-09-17T08:41:49Z</time>
      </trkpt>
      <trkpt lat="44.45306" lon="1.27422">
        <ele>288.53</ele>
        <time>2020-09-17T08:42:07Z</time>
      </trkpt>
      <trkpt lat="44.45307" lon="1.27415">
        <ele>288.05</ele>
        <time>2020-09-17T08:42:13Z</time>
      </trkpt>
      <trkpt lat="44.45313" lon="1.27392">
        <ele>285.65</ele>
        <time>2020-09-17T08:42:31Z</time>
      </trkpt>
      <trkpt lat="44.45317" lon="1.2737">
        <ele>283.73</ele>
        <time>2020-09-17T08:42:48Z</time>
      </trkpt>
      <trkpt lat="44.45322" lon="1.27349">
        <ele>281.32</ele>
        <time>2020-09-17T08:43:05Z</time>
      </trkpt>
      <trkpt lat="44.45327" lon="1.27329">
        <ele>277.96</ele>
        <time>2020-09-17T08:43:22Z</time>
      </trkpt>
      <trkpt lat="44.45332" lon="1.27308">
        <ele>275.56</ele>
        <time>2020-09-17T08:43:41Z</time>
      </trkpt>
      <trkpt lat="44.45334" lon="1.27294">
        <ele>274.59</ele>
        <time>2020-09-17T08:43:58Z</time>
      </trkpt>
      <trkpt lat="44.45345" lon="1.27289">
        <ele>273.63</ele>
        <time>2020-09-17T08:44:14Z</time>
      </trkpt>
      <trkpt lat="44.45357" lon="1.27302">
        <ele>275.07</ele>
        <time>2020-09-17T08:44:31Z</time>
      </trkpt>
      <trkpt lat="44.45363" lon="1.27308">
        <ele>275.56</ele>
        <time>2020-09-17T08:44:39Z</time>
      </trkpt>
      <trkpt lat="44.45379" lon="1.27312">
        <ele>276.04</ele>
        <time>2020-09-17T08:44:58Z</time>
      </trkpt>
      <trkpt lat="44.45391" lon="1.27298">
        <ele>274.59</ele>
        <time>2020-09-17T08:45:14Z</time>
      </trkpt>
      <trkpt lat="44.45398" lon="1.27285">
        <ele>274.11</ele>
        <time>2020-09-17T08:45:26Z</time>
      </trkpt>
      <trkpt lat="44.454" lon="1.27282">
        <ele>274.11</ele>
        <time>2020-09-17T08:45:29Z</time>
      </trkpt>
      <trkpt lat="44.45414" lon="1.27265">
        <ele>274.11</ele>
        <time>2020-09-17T08:45:49Z</time>
      </trkpt>
      <trkpt lat="44.45425" lon="1.2725">
        <ele>272.19</ele>
        <time>2020-09-17T08:46:09Z</time>
      </trkpt>
      <trkpt lat="44.45408" lon="1.27255">
        <ele>271.23</ele>
        <time>2020-09-17T08:46:27Z</time>
      </trkpt>
      <trkpt lat="44.45394" lon="1.27254">
        <ele>270.75</ele>
        <time>2020-09-17T08:46:46Z</time>
      </trkpt>
      <trkpt lat="44.45383" lon="1.27249">
        <ele>267.86</ele>
        <time>2020-09-17T08:47:02Z</time>
      </trkpt>
      <trkpt lat="44.45375" lon="1.27234">
        <ele>263.06</ele>
        <time>2020-09-17T08:47:18Z</time>
      </trkpt>
      <trkpt lat="44.45377" lon="1.27216">
        <ele>261.14</ele>
        <time>2020-09-17T08:47:30Z</time>
      </trkpt>
      <trkpt lat="44.45375" lon="1.27197">
        <ele>258.73</ele>
        <time>2020-09-17T08:47:44Z</time>
      </trkpt>
      <trkpt lat="44.45372" lon="1.2718">
        <ele>254.89</ele>
        <time>2020-09-17T08:48:00Z</time>
      </trkpt>
      <trkpt lat="44.4537" lon="1.27163">
        <ele>251.04</ele>
        <time>2020-09-17T08:48:18Z</time>
      </trkpt>
      <trkpt lat="44.45372" lon="1.27142">
        <ele>247.2</ele>
        <time>2020-09-17T08:48:35Z</time>
      </trkpt>
      <trkpt lat="44.45382" lon="1.27128">
        <ele>245.27</ele>
        <time>2020-09-17T08:48:55Z</time>
      </trkpt>
      <trkpt lat="44.45396" lon="1.27115">
        <ele>241.91</ele>
        <time>2020-09-17T08:49:13Z</time>
      </trkpt>
      <trkpt lat="44.45406" lon="1.27099">
        <ele>238.06</ele>
        <time>2020-09-17T08:49:29Z</time>
      </trkpt>
      <trkpt lat="44.4541" lon="1.27081">
        <ele>235.66</ele>
        <time>2020-09-17T08:49:44Z</time>
      </trkpt>
      <trkpt lat="44.45416" lon="1.27063">
        <ele>230.85</ele>
        <time>2020-09-17T08:50:00Z</time>
      </trkpt>
      <trkpt lat="44.45424" lon="1.27037">
        <ele>233.26</ele>
        <time>2020-09-17T08:50:19Z</time>
      </trkpt>
      <trkpt lat="44.45429" lon="1.27015">
        <ele>238.06</ele>
        <time>2020-09-17T08:50:36Z</time>
      </trkpt>
      <trkpt lat="44.45434" lon="1.26997">
        <ele>233.74</ele>
        <time>2020-09-17T08:50:53Z</time>
      </trkpt>
      <trkpt lat="44.45441" lon="1.26977">
        <ele>229.89</ele>
        <time>2020-09-17T08:51:10Z</time>
      </trkpt>
      <trkpt lat="44.45445" lon="1.26955">
        <ele>228.93</ele>
        <time>2020-09-17T08:51:27Z</time>
      </trkpt>
      <trkpt lat="44.45446" lon="1.26933">
        <ele>225.09</ele>
        <time>2020-09-17T08:51:45Z</time>
      </trkpt>
      <trkpt lat="44.45446" lon="1.26904">
        <ele>218.36</ele>
        <time>2020-09-17T08:52:07Z</time>
      </trkpt>
      <trkpt lat="44.45442" lon="1.26875">
        <ele>218.36</ele>
        <time>2020-09-17T08:52:27Z</time>
      </trkpt>
      <trkpt lat="44.45441" lon="1.26857">
        <ele>216.91</ele>
        <time>2020-09-17T08:52:41Z</time>
      </trkpt>
      <trkpt lat="44.4544" lon="1.26827">
        <ele>214.99</ele>
        <time>2020-09-17T08:53:03Z</time>
      </trkpt>
      <trkpt lat="44.45438" lon="1.268">
        <ele>212.11</ele>
        <time>2020-09-17T08:53:22Z</time>
      </trkpt>
      <trkpt lat="44.45436" lon="1.26775">
        <ele>210.67</ele>
        <time>2020-09-17T08:53:41Z</time>
      </trkpt>
      <trkpt lat="44.45444" lon="1.26751">
        <ele>207.78</ele>
        <time>2020-09-17T08:53:59Z</time>
      </trkpt>
      <trkpt lat="44.45453" lon="1.26727">
        <ele>203.46</ele>
        <time>2020-09-17T08:54:18Z</time>
      </trkpt>
      <trkpt lat="44.4546" lon="1.2671">
        <ele>202.98</ele>
        <time>2020-09-17T08:54:32Z</time>
      </trkpt>
      <trkpt lat="44.45466" lon="1.26682">
        <ele>200.57</ele>
        <time>2020-09-17T08:54:51Z</time>
      </trkpt>
      <trkpt lat="44.45473" lon="1.26656">
        <ele>200.57</ele>
        <time>2020-09-17T08:55:10Z</time>
      </trkpt>
      <trkpt lat="44.45474" lon="1.26651">
        <ele>200.09</ele>
        <time>2020-09-17T08:55:14Z</time>
      </trkpt>
      <trkpt lat="44.45473" lon="1.26626">
        <ele>200.57</ele>
        <time>2020-09-17T08:55:32Z</time>
      </trkpt>
      <trkpt lat="44.45473" lon="1.26606">
        <ele>197.21</ele>
        <time>2020-09-17T08:55:47Z</time>
      </trkpt>
      <trkpt lat="44.45479" lon="1.26585">
        <ele>195.28</ele>
        <time>2020-09-17T08:56:03Z</time>
      </trkpt>
      <trkpt lat="44.45488" lon="1.26561">
        <ele>190.96</ele>
        <time>2020-09-17T08:56:21Z</time>
      </trkpt>
      <trkpt lat="44.45497" lon="1.26534">
        <ele>186.15</ele>
        <time>2020-09-17T08:56:42Z</time>
      </trkpt>
      <trkpt lat="44.45498" lon="1.26511">
        <ele>183.75</ele>
        <time>2020-09-17T08:56:59Z</time>
      </trkpt>
      <trkpt lat="44.45502" lon="1.26501">
        <ele>184.23</ele>
        <time>2020-09-17T08:57:13Z</time>
      </trkpt>
      <trkpt lat="44.45503" lon="1.26501">
        <ele>191.44</ele>
        <time>2020-09-17T08:57:32Z</time>
      </trkpt>
      <trkpt lat="44.45501" lon="1.26502">
        <ele>201.05</ele>
        <time>2020-09-17T08:57:50Z</time>
      </trkpt>
      <trkpt lat="44.45498" lon="1.26508">
        <ele>206.34</ele>
        <time>2020-09-17T08:58:26Z</time>
      </trkpt>
      <trkpt lat="44.45496" lon="1.26505">
        <ele>209.7</ele>
        <time>2020-09-17T08:58:56Z</time>
      </trkpt>
      <trkpt lat="44.45495" lon="1.26504">
        <ele>214.99</ele>
        <time>2020-09-17T08:59:32Z</time>
      </trkpt>
      <trkpt lat="44.45495" lon="1.26505">
        <ele>217.4</ele>
        <time>2020-09-17T09:00:10Z</time>
      </trkpt>
      <trkpt lat="44.45497" lon="1.26507">
        <ele>217.88</ele>
        <time>2020-09-17T09:00:34Z</time>
      </trkpt>
      <trkpt lat="44.45494" lon="1.26505">
        <ele>222.68</ele>
        <time>2020-09-17T09:01:01Z</time>
      </trkpt>
      <trkpt lat="44.45496" lon="1.26505">
        <ele>225.09</ele>
        <time>2020-09-17T09:01:27Z</time>
      </trkpt>
      <trkpt lat="44.45493" lon="1.26505">
        <ele>226.53</ele>
        <time>2020-09-17T09:01:52Z</time>
      </trkpt>
      <trkpt lat="44.45491" lon="1.26503">
        <ele>217.88</ele>
        <time>2020-09-17T09:02:19Z</time>
      </trkpt>
      <trkpt lat="44.45492" lon="1.26502">
        <ele>218.36</ele>
        <time>2020-09-17T09:02:53Z</time>
      </trkpt>
      <trkpt lat="44.45492" lon="1.265">
        <ele>218.36</ele>
        <time>2020-09-17T09:03:24Z</time>
      </trkpt>
      <trkpt lat="44.45492" lon="1.26503">
        <ele>218.84</ele>
        <time>2020-09-17T09:03:56Z</time>
      </trkpt>
      <trkpt lat="44.45492" lon="1.26499">
        <ele>218.84</ele>
        <time>2020-09-17T09:04:20Z</time>
      </trkpt>
      <trkpt lat="44.45489" lon="1.26499">
        <ele>218.84</ele>
        <time>2020-09-17T09:04:51Z</time>
      </trkpt>
      <trkpt lat="44.45489" lon="1.26495">
        <ele>218.36</ele>
        <time>2020-09-17T09:05:24Z</time>
      </trkpt>
      <trkpt lat="44.45489" lon="1.26491">
        <ele>217.4</ele>
        <time>2020-09-17T09:05:51Z</time>
      </trkpt>
      <trkpt lat="44.45492" lon="1.26501">
        <ele>221.72</ele>
        <time>2020-09-17T09:06:13Z</time>
      </trkpt>
      <trkpt lat="44.45506" lon="1.26501">
        <ele>222.2</ele>
        <time>2020-09-17T09:06:30Z</time>
      </trkpt>
      <trkpt lat="44.45513" lon="1.26482">
        <ele>220.28</ele>
        <time>2020-09-17T09:06:44Z</time>
      </trkpt>
      <trkpt lat="44.45513" lon="1.26471">
        <ele>214.03</ele>
        <time>2020-09-17T09:07:01Z</time>
      </trkpt>
      <trkpt lat="44.45517" lon="1.26455">
        <ele>210.67</ele>
        <time>2020-09-17T09:07:18Z</time>
      </trkpt>
      <trkpt lat="44.45523" lon="1.2644">
        <ele>210.19</ele>
        <time>2020-09-17T09:07:33Z</time>
      </trkpt>
      <trkpt lat="44.45527" lon="1.26426">
        <ele>210.19</ele>
        <time>2020-09-17T09:07:47Z</time>
      </trkpt>
      <trkpt lat="44.45534" lon="1.26412">
        <ele>208.74</ele>
        <time>2020-09-17T09:08:02Z</time>
      </trkpt>
      <trkpt lat="44.45541" lon="1.26395">
        <ele>207.78</ele>
        <time>2020-09-17T09:08:17Z</time>
      </trkpt>
      <trkpt lat="44.45544" lon="1.26387">
        <ele>210.19</ele>
        <time>2020-09-17T09:08:29Z</time>
      </trkpt>
      <trkpt lat="44.4555" lon="1.26372">
        <ele>209.22</ele>
        <time>2020-09-17T09:08:43Z</time>
      </trkpt>
      <trkpt lat="44.45557" lon="1.26355">
        <ele>214.03</ele>
        <time>2020-09-17T09:09:04Z</time>
      </trkpt>
      <trkpt lat="44.45565" lon="1.26343">
        <ele>219.32</ele>
        <time>2020-09-17T09:09:19Z</time>
      </trkpt>
      <trkpt lat="44.45575" lon="1.26331">
        <ele>222.68</ele>
        <time>2020-09-17T09:09:35Z</time>
      </trkpt>
      <trkpt lat="44.45583" lon="1.2632">
        <ele>224.12</ele>
        <time>2020-09-17T09:09:46Z</time>
      </trkpt>
      <trkpt lat="44.45597" lon="1.26306">
        <ele>226.53</ele>
        <time>2020-09-17T09:10:03Z</time>
      </trkpt>
      <trkpt lat="44.45608" lon="1.26298">
        <ele>227.97</ele>
        <time>2020-09-17T09:10:18Z</time>
      </trkpt>
      <trkpt lat="44.45621" lon="1.26294">
        <ele>229.41</ele>
        <time>2020-09-17T09:10:33Z</time>
      </trkpt>
      <trkpt lat="44.45634" lon="1.26284">
        <ele>230.85</ele>
        <time>2020-09-17T09:10:49Z</time>
      </trkpt>
      <trkpt lat="44.45642" lon="1.2628">
        <ele>232.78</ele>
        <time>2020-09-17T09:11:04Z</time>
      </trkpt>
      <trkpt lat="44.45649" lon="1.26275">
        <ele>233.74</ele>
        <time>2020-09-17T09:11:18Z</time>
      </trkpt>
      <trkpt lat="44.45657" lon="1.26268">
        <ele>237.1</ele>
        <time>2020-09-17T09:11:33Z</time>
      </trkpt>
      <trkpt lat="44.45668" lon="1.26259">
        <ele>240.47</ele>
        <time>2020-09-17T09:11:50Z</time>
      </trkpt>
      <trkpt lat="44.45678" lon="1.2625">
        <ele>242.87</ele>
        <time>2020-09-17T09:12:05Z</time>
      </trkpt>
      <trkpt lat="44.45686" lon="1.26246">
        <ele>245.27</ele>
        <time>2020-09-17T09:12:19Z</time>
      </trkpt>
      <trkpt lat="44.45694" lon="1.2624">
        <ele>247.2</ele>
        <time>2020-09-17T09:12:35Z</time>
      </trkpt>
      <trkpt lat="44.45703" lon="1.26235">
        <ele>249.6</ele>
        <time>2020-09-17T09:12:51Z</time>
      </trkpt>
      <trkpt lat="44.4571" lon="1.26233">
        <ele>251.52</ele>
        <time>2020-09-17T09:13:08Z</time>
      </trkpt>
      <trkpt lat="44.45716" lon="1.26236">
        <ele>256.81</ele>
        <time>2020-09-17T09:13:24Z</time>
      </trkpt>
      <trkpt lat="44.45724" lon="1.26247">
        <ele>258.73</ele>
        <time>2020-09-17T09:13:40Z</time>
      </trkpt>
      <trkpt lat="44.4573" lon="1.26259">
        <ele>260.65</ele>
        <time>2020-09-17T09:13:56Z</time>
      </trkpt>
      <trkpt lat="44.45736" lon="1.26272">
        <ele>263.54</ele>
        <time>2020-09-17T09:14:10Z</time>
      </trkpt>
      <trkpt lat="44.45736" lon="1.26291">
        <ele>265.46</ele>
        <time>2020-09-17T09:14:26Z</time>
      </trkpt>
      <trkpt lat="44.45728" lon="1.26304">
        <ele>265.46</ele>
        <time>2020-09-17T09:14:42Z</time>
      </trkpt>
      <trkpt lat="44.45723" lon="1.26321">
        <ele>265.94</ele>
        <time>2020-09-17T09:14:57Z</time>
      </trkpt>
      <trkpt lat="44.4572" lon="1.26339">
        <ele>265.46</ele>
        <time>2020-09-17T09:15:11Z</time>
      </trkpt>
      <trkpt lat="44.45717" lon="1.26348">
        <ele>264.02</ele>
        <time>2020-09-17T09:15:20Z</time>
      </trkpt>
      <trkpt lat="44.45709" lon="1.26369">
        <ele>266.9</ele>
        <time>2020-09-17T09:15:38Z</time>
      </trkpt>
      <trkpt lat="44.45705" lon="1.26388">
        <ele>268.83</ele>
        <time>2020-09-17T09:15:56Z</time>
      </trkpt>
      <trkpt lat="44.45706" lon="1.26403">
        <ele>269.31</ele>
        <time>2020-09-17T09:16:11Z</time>
      </trkpt>
      <trkpt lat="44.4571" lon="1.26414">
        <ele>272.67</ele>
        <time>2020-09-17T09:16:25Z</time>
      </trkpt>
      <trkpt lat="44.45717" lon="1.26428">
        <ele>275.07</ele>
        <time>2020-09-17T09:16:41Z</time>
      </trkpt>
      <trkpt lat="44.45724" lon="1.2644">
        <ele>275.56</ele>
        <time>2020-09-17T09:16:56Z</time>
      </trkpt>
      <trkpt lat="44.45726" lon="1.26452">
        <ele>276.04</ele>
        <time>2020-09-17T09:17:10Z</time>
      </trkpt>
      <trkpt lat="44.45725" lon="1.26455">
        <ele>278.44</ele>
        <time>2020-09-17T09:17:32Z</time>
      </trkpt>
      <trkpt lat="44.45723" lon="1.26453">
        <ele>279.4</ele>
        <time>2020-09-17T09:18:02Z</time>
      </trkpt>
      <trkpt lat="44.45726" lon="1.2646">
        <ele>280.84</ele>
        <time>2020-09-17T09:18:27Z</time>
      </trkpt>
      <trkpt lat="44.45731" lon="1.26477">
        <ele>281.32</ele>
        <time>2020-09-17T09:18:45Z</time>
      </trkpt>
      <trkpt lat="44.45734" lon="1.2649">
        <ele>283.25</ele>
        <time>2020-09-17T09:18:56Z</time>
      </trkpt>
      <trkpt lat="44.45736" lon="1.26509">
        <ele>282.77</ele>
        <time>2020-09-17T09:19:12Z</time>
      </trkpt>
      <trkpt lat="44.45738" lon="1.26525">
        <ele>282.77</ele>
        <time>2020-09-17T09:19:27Z</time>
      </trkpt>
      <trkpt lat="44.45741" lon="1.26542">
        <ele>285.17</ele>
        <time>2020-09-17T09:19:42Z</time>
      </trkpt>
      <trkpt lat="44.45744" lon="1.26556">
        <ele>285.17</ele>
        <time>2020-09-17T09:19:56Z</time>
      </trkpt>
      <trkpt lat="44.45746" lon="1.26573">
        <ele>285.65</ele>
        <time>2020-09-17T09:20:12Z</time>
      </trkpt>
      <trkpt lat="44.45749" lon="1.26593">
        <ele>286.13</ele>
        <time>2020-09-17T09:20:28Z</time>
      </trkpt>
      <trkpt lat="44.45754" lon="1.26614">
        <ele>287.09</ele>
        <time>2020-09-17T09:20:44Z</time>
      </trkpt>
      <trkpt lat="44.45755" lon="1.2662">
        <ele>287.57</ele>
        <time>2020-09-17T09:20:50Z</time>
      </trkpt>
      <trkpt lat="44.45763" lon="1.2664">
        <ele>289.49</ele>
        <time>2020-09-17T09:21:08Z</time>
      </trkpt>
      <trkpt lat="44.4577" lon="1.26662">
        <ele>290.46</ele>
        <time>2020-09-17T09:21:25Z</time>
      </trkpt>
      <trkpt lat="44.45773" lon="1.2668">
        <ele>287.09</ele>
        <time>2020-09-17T09:21:42Z</time>
      </trkpt>
      <trkpt lat="44.45775" lon="1.26696">
        <ele>285.17</ele>
        <time>2020-09-17T09:21:58Z</time>
      </trkpt>
      <trkpt lat="44.45772" lon="1.26711">
        <ele>283.25</ele>
        <time>2020-09-17T09:22:14Z</time>
      </trkpt>
      <trkpt lat="44.45768" lon="1.26718">
        <ele>283.73</ele>
        <time>2020-09-17T09:22:21Z</time>
      </trkpt>
      <trkpt lat="44.45759" lon="1.26738">
        <ele>286.13</ele>
        <time>2020-09-17T09:22:38Z</time>
      </trkpt>
      <trkpt lat="44.45749" lon="1.26757">
        <ele>286.13</ele>
        <time>2020-09-17T09:22:56Z</time>
      </trkpt>
      <trkpt lat="44.45737" lon="1.26776">
        <ele>285.17</ele>
        <time>2020-09-17T09:23:15Z</time>
      </trkpt>
      <trkpt lat="44.45723" lon="1.26789">
        <ele>284.21</ele>
        <time>2020-09-17T09:23:34Z</time>
      </trkpt>
      <trkpt lat="44.45709" lon="1.26802">
        <ele>282.77</ele>
        <time>2020-09-17T09:23:51Z</time>
      </trkpt>
      <trkpt lat="44.45695" lon="1.26818">
        <ele>281.8</ele>
        <time>2020-09-17T09:24:09Z</time>
      </trkpt>
      <trkpt lat="44.45689" lon="1.26837">
        <ele>282.28</ele>
        <time>2020-09-17T09:24:25Z</time>
      </trkpt>
      <trkpt lat="44.45684" lon="1.26855">
        <ele>283.25</ele>
        <time>2020-09-17T09:24:40Z</time>
      </trkpt>
      <trkpt lat="44.45692" lon="1.26861">
        <ele>282.28</ele>
        <time>2020-09-17T09:24:54Z</time>
      </trkpt>
      <trkpt lat="44.45705" lon="1.26866">
        <ele>281.8</ele>
        <time>2020-09-17T09:25:11Z</time>
      </trkpt>
      <trkpt lat="44.45719" lon="1.2687">
        <ele>278.44</ele>
        <time>2020-09-17T09:25:28Z</time>
      </trkpt>
      <trkpt lat="44.45736" lon="1.26874">
        <ele>277</ele>
        <time>2020-09-17T09:25:45Z</time>
      </trkpt>
      <trkpt lat="44.45753" lon="1.26879">
        <ele>275.56</ele>
        <time>2020-09-17T09:26:04Z</time>
      </trkpt>
      <trkpt lat="44.45766" lon="1.26889">
        <ele>275.07</ele>
        <time>2020-09-17T09:26:22Z</time>
      </trkpt>
      <trkpt lat="44.4578" lon="1.26901">
        <ele>274.11</ele>
        <time>2020-09-17T09:26:39Z</time>
      </trkpt>
      <trkpt lat="44.45795" lon="1.26913">
        <ele>272.67</ele>
        <time>2020-09-17T09:26:58Z</time>
      </trkpt>
      <trkpt lat="44.45806" lon="1.26923">
        <ele>272.19</ele>
        <time>2020-09-17T09:27:13Z</time>
      </trkpt>
      <trkpt lat="44.45817" lon="1.26931">
        <ele>272.67</ele>
        <time>2020-09-17T09:27:28Z</time>
      </trkpt>
      <trkpt lat="44.45829" lon="1.26934">
        <ele>270.27</ele>
        <time>2020-09-17T09:27:44Z</time>
      </trkpt>
      <trkpt lat="44.45835" lon="1.26927">
        <ele>268.35</ele>
        <time>2020-09-17T09:27:52Z</time>
      </trkpt>
      <trkpt lat="44.45845" lon="1.26922">
        <ele>265.94</ele>
        <time>2020-09-17T09:28:08Z</time>
      </trkpt>
      <trkpt lat="44.45848" lon="1.26921">
        <ele>265.46</ele>
        <time>2020-09-17T09:28:12Z</time>
      </trkpt>
      <trkpt lat="44.45859" lon="1.26914">
        <ele>264.98</ele>
        <time>2020-09-17T09:28:26Z</time>
      </trkpt>
      <trkpt lat="44.45868" lon="1.2691">
        <ele>266.42</ele>
        <time>2020-09-17T09:28:40Z</time>
      </trkpt>
      <trkpt lat="44.45875" lon="1.26922">
        <ele>268.35</ele>
        <time>2020-09-17T09:28:54Z</time>
      </trkpt>
      <trkpt lat="44.45887" lon="1.26931">
        <ele>269.79</ele>
        <time>2020-09-17T09:29:12Z</time>
      </trkpt>
      <trkpt lat="44.45895" lon="1.26918">
        <ele>269.31</ele>
        <time>2020-09-17T09:29:23Z</time>
      </trkpt>
      <trkpt lat="44.45912" lon="1.26902">
        <ele>268.35</ele>
        <time>2020-09-17T09:29:42Z</time>
      </trkpt>
      <trkpt lat="44.45922" lon="1.26887">
        <ele>268.83</ele>
        <time>2020-09-17T09:29:58Z</time>
      </trkpt>
      <trkpt lat="44.4593" lon="1.26866">
        <ele>268.35</ele>
        <time>2020-09-17T09:30:16Z</time>
      </trkpt>
      <trkpt lat="44.45937" lon="1.26848">
        <ele>265.46</ele>
        <time>2020-09-17T09:30:33Z</time>
      </trkpt>
      <trkpt lat="44.45947" lon="1.26853">
        <ele>263.54</ele>
        <time>2020-09-17T09:30:51Z</time>
      </trkpt>
      <trkpt lat="44.45951" lon="1.26874">
        <ele>262.58</ele>
        <time>2020-09-17T09:31:08Z</time>
      </trkpt>
      <trkpt lat="44.45951" lon="1.26898">
        <ele>261.14</ele>
        <time>2020-09-17T09:31:27Z</time>
      </trkpt>
      <trkpt lat="44.45951" lon="1.26923">
        <ele>261.14</ele>
        <time>2020-09-17T09:31:45Z</time>
      </trkpt>
      <trkpt lat="44.4595" lon="1.26948">
        <ele>261.14</ele>
        <time>2020-09-17T09:32:03Z</time>
      </trkpt>
      <trkpt lat="44.45948" lon="1.2697">
        <ele>258.25</ele>
        <time>2020-09-17T09:32:19Z</time>
      </trkpt>
      <trkpt lat="44.45953" lon="1.26996">
        <ele>259.69</ele>
        <time>2020-09-17T09:32:39Z</time>
      </trkpt>
      <trkpt lat="44.4596" lon="1.27019">
        <ele>260.17</ele>
        <time>2020-09-17T09:32:57Z</time>
      </trkpt>
      <trkpt lat="44.45969" lon="1.27045">
        <ele>257.77</ele>
        <time>2020-09-17T09:33:18Z</time>
      </trkpt>
      <trkpt lat="44.45974" lon="1.27067">
        <ele>258.73</ele>
        <time>2020-09-17T09:33:33Z</time>
      </trkpt>
      <trkpt lat="44.45977" lon="1.27074">
        <ele>259.21</ele>
        <time>2020-09-17T09:33:38Z</time>
      </trkpt>
      <trkpt lat="44.45984" lon="1.27102">
        <ele>260.65</ele>
        <time>2020-09-17T09:33:55Z</time>
      </trkpt>
      <trkpt lat="44.45986" lon="1.27126">
        <ele>255.85</ele>
        <time>2020-09-17T09:34:12Z</time>
      </trkpt>
      <trkpt lat="44.45988" lon="1.27155">
        <ele>254.41</ele>
        <time>2020-09-17T09:34:31Z</time>
      </trkpt>
      <trkpt lat="44.45997" lon="1.27178">
        <ele>250.56</ele>
        <time>2020-09-17T09:34:49Z</time>
      </trkpt>
      <trkpt lat="44.46009" lon="1.27193">
        <ele>246.23</ele>
        <time>2020-09-17T09:35:05Z</time>
      </trkpt>
      <trkpt lat="44.46016" lon="1.272">
        <ele>245.27</ele>
        <time>2020-09-17T09:35:13Z</time>
      </trkpt>
      <trkpt lat="44.46032" lon="1.27215">
        <ele>242.39</ele>
        <time>2020-09-17T09:35:32Z</time>
      </trkpt>
      <trkpt lat="44.46045" lon="1.27227">
        <ele>242.87</ele>
        <time>2020-09-17T09:35:50Z</time>
      </trkpt>
      <trkpt lat="44.46058" lon="1.27238">
        <ele>248.16</ele>
        <time>2020-09-17T09:36:06Z</time>
      </trkpt>
      <trkpt lat="44.46072" lon="1.27253">
        <ele>248.16</ele>
        <time>2020-09-17T09:36:25Z</time>
      </trkpt>
      <trkpt lat="44.46086" lon="1.27267">
        <ele>244.79</ele>
        <time>2020-09-17T09:36:43Z</time>
      </trkpt>
      <trkpt lat="44.46095" lon="1.27279">
        <ele>243.35</ele>
        <time>2020-09-17T09:36:58Z</time>
      </trkpt>
      <trkpt lat="44.46104" lon="1.27307">
        <ele>241.43</ele>
        <time>2020-09-17T09:37:18Z</time>
      </trkpt>
      <trkpt lat="44.46116" lon="1.2731">
        <ele>237.1</ele>
        <time>2020-09-17T09:37:35Z</time>
      </trkpt>
      <trkpt lat="44.46125" lon="1.27307">
        <ele>234.7</ele>
        <time>2020-09-17T09:37:47Z</time>
      </trkpt>
      <trkpt lat="44.46142" lon="1.27311">
        <ele>233.26</ele>
        <time>2020-09-17T09:38:06Z</time>
      </trkpt>
      <trkpt lat="44.46158" lon="1.27311">
        <ele>230.37</ele>
        <time>2020-09-17T09:38:22Z</time>
      </trkpt>
      <trkpt lat="44.46172" lon="1.27307">
        <ele>227.01</ele>
        <time>2020-09-17T09:38:40Z</time>
      </trkpt>
      <trkpt lat="44.46186" lon="1.2729">
        <ele>220.76</ele>
        <time>2020-09-17T09:38:59Z</time>
      </trkpt>
      <trkpt lat="44.46196" lon="1.27274">
        <ele>216.43</ele>
        <time>2020-09-17T09:39:16Z</time>
      </trkpt>
      <trkpt lat="44.46197" lon="1.27253">
        <ele>210.19</ele>
        <time>2020-09-17T09:39:33Z</time>
      </trkpt>
      <trkpt lat="44.46194" lon="1.27239">
        <ele>208.26</ele>
        <time>2020-09-17T09:39:44Z</time>
      </trkpt>
      <trkpt lat="44.46183" lon="1.2722">
        <ele>204.42</ele>
        <time>2020-09-17T09:40:02Z</time>
      </trkpt>
      <trkpt lat="44.46173" lon="1.27207">
        <ele>201.53</ele>
        <time>2020-09-17T09:40:18Z</time>
      </trkpt>
      <trkpt lat="44.46161" lon="1.27193">
        <ele>198.65</ele>
        <time>2020-09-17T09:40:36Z</time>
      </trkpt>
      <trkpt lat="44.46148" lon="1.27181">
        <ele>194.32</ele>
        <time>2020-09-17T09:40:55Z</time>
      </trkpt>
      <trkpt lat="44.46138" lon="1.27166">
        <ele>190.96</ele>
        <time>2020-09-17T09:41:12Z</time>
      </trkpt>
      <trkpt lat="44.46134" lon="1.27153">
        <ele>191.44</ele>
        <time>2020-09-17T09:41:27Z</time>
      </trkpt>
      <trkpt lat="44.46132" lon="1.27149">
        <ele>192.4</ele>
        <time>2020-09-17T09:41:40Z</time>
      </trkpt>
      <trkpt lat="44.46133" lon="1.27151">
        <ele>194.32</ele>
        <time>2020-09-17T09:42:03Z</time>
      </trkpt>
      <trkpt lat="44.46144" lon="1.27157">
        <ele>195.28</ele>
        <time>2020-09-17T09:42:18Z</time>
      </trkpt>
      <trkpt lat="44.46152" lon="1.27166">
        <ele>194.8</ele>
        <time>2020-09-17T09:42:33Z</time>
      </trkpt>
      <trkpt lat="44.46156" lon="1.27168">
        <ele>196.25</ele>
        <time>2020-09-17T09:42:53Z</time>
      </trkpt>
      <trkpt lat="44.46156" lon="1.2717">
        <ele>199.61</ele>
        <time>2020-09-17T09:43:17Z</time>
      </trkpt>
      <trkpt lat="44.46165" lon="1.27171">
        <ele>199.61</ele>
        <time>2020-09-17T09:43:31Z</time>
      </trkpt>
      <trkpt lat="44.46181" lon="1.2717">
        <ele>196.73</ele>
        <time>2020-09-17T09:43:48Z</time>
      </trkpt>
      <trkpt lat="44.46196" lon="1.27177">
        <ele>192.88</ele>
        <time>2020-09-17T09:44:06Z</time>
      </trkpt>
      <trkpt lat="44.46212" lon="1.27187">
        <ele>188.56</ele>
        <time>2020-09-17T09:44:21Z</time>
      </trkpt>
      <trkpt lat="44.46228" lon="1.27199">
        <ele>186.15</ele>
        <time>2020-09-17T09:44:38Z</time>
      </trkpt>
      <trkpt lat="44.46243" lon="1.27207">
        <ele>185.19</ele>
        <time>2020-09-17T09:44:52Z</time>
      </trkpt>
      <trkpt lat="44.4626" lon="1.27217">
        <ele>180.87</ele>
        <time>2020-09-17T09:45:10Z</time>
      </trkpt>
      <trkpt lat="44.4628" lon="1.2722">
        <ele>177.02</ele>
        <time>2020-09-17T09:45:28Z</time>
      </trkpt>
      <trkpt lat="44.46296" lon="1.27219">
        <ele>171.73</ele>
        <time>2020-09-17T09:45:44Z</time>
      </trkpt>
      <trkpt lat="44.46312" lon="1.27222">
        <ele>167.41</ele>
        <time>2020-09-17T09:46:01Z</time>
      </trkpt>
      <trkpt lat="44.46333" lon="1.27226">
        <ele>165</ele>
        <time>2020-09-17T09:46:19Z</time>
      </trkpt>
      <trkpt lat="44.46355" lon="1.27233">
        <ele>165</ele>
        <time>2020-09-17T09:46:37Z</time>
      </trkpt>
      <trkpt lat="44.46372" lon="1.27241">
        <ele>162.6</ele>
        <time>2020-09-17T09:46:52Z</time>
      </trkpt>
      <trkpt lat="44.46391" lon="1.27236">
        <ele>162.6</ele>
        <time>2020-09-17T09:47:07Z</time>
      </trkpt>
      <trkpt lat="44.46407" lon="1.27225">
        <ele>161.16</ele>
        <time>2020-09-17T09:47:22Z</time>
      </trkpt>
      <trkpt lat="44.46423" lon="1.27215">
        <ele>159.24</ele>
        <time>2020-09-17T09:47:38Z</time>
      </trkpt>
      <trkpt lat="44.46441" lon="1.27203">
        <ele>156.83</ele>
        <time>2020-09-17T09:47:56Z</time>
      </trkpt>
      <trkpt lat="44.46461" lon="1.27191">
        <ele>153.95</ele>
        <time>2020-09-17T09:48:15Z</time>
      </trkpt>
      <trkpt lat="44.46477" lon="1.27178">
        <ele>152.03</ele>
        <time>2020-09-17T09:48:32Z</time>
      </trkpt>
      <trkpt lat="44.46492" lon="1.27168">
        <ele>149.14</ele>
        <time>2020-09-17T09:48:49Z</time>
      </trkpt>
      <trkpt lat="44.46503" lon="1.27162">
        <ele>145.78</ele>
        <time>2020-09-17T09:49:02Z</time>
      </trkpt>
      <trkpt lat="44.46522" lon="1.27157">
        <ele>144.34</ele>
        <time>2020-09-17T09:49:18Z</time>
      </trkpt>
      <trkpt lat="44.46544" lon="1.27151">
        <ele>146.26</ele>
        <time>2020-09-17T09:49:35Z</time>
      </trkpt>
      <trkpt lat="44.46558" lon="1.27147">
        <ele>147.22</ele>
        <time>2020-09-17T09:49:48Z</time>
      </trkpt>
      <trkpt lat="44.46563" lon="1.27146">
        <ele>147.7</ele>
        <time>2020-09-17T09:49:53Z</time>
      </trkpt>
      <trkpt lat="44.46584" lon="1.27147">
        <ele>150.58</ele>
        <time>2020-09-17T09:50:10Z</time>
      </trkpt>
      <trkpt lat="44.46601" lon="1.27151">
        <ele>148.66</ele>
        <time>2020-09-17T09:50:27Z</time>
      </trkpt>
      <trkpt lat="44.46619" lon="1.27161">
        <ele>145.78</ele>
        <time>2020-09-17T09:50:45Z</time>
      </trkpt>
      <trkpt lat="44.46637" lon="1.27169">
        <ele>145.3</ele>
        <time>2020-09-17T09:51:02Z</time>
      </trkpt>
      <trkpt lat="44.46654" lon="1.27176">
        <ele>142.89</ele>
        <time>2020-09-17T09:51:19Z</time>
      </trkpt>
      <trkpt lat="44.46673" lon="1.27185">
        <ele>140.01</ele>
        <time>2020-09-17T09:51:37Z</time>
      </trkpt>
      <trkpt lat="44.4669" lon="1.27193">
        <ele>138.57</ele>
        <time>2020-09-17T09:51:53Z</time>
      </trkpt>
      <trkpt lat="44.46709" lon="1.27197">
        <ele>138.09</ele>
        <time>2020-09-17T09:52:08Z</time>
      </trkpt>
      <trkpt lat="44.46731" lon="1.27202">
        <ele>136.64</ele>
        <time>2020-09-17T09:52:28Z</time>
      </trkpt>
      <trkpt lat="44.46752" lon="1.27205">
        <ele>134.72</ele>
        <time>2020-09-17T09:52:46Z</time>
      </trkpt>
      <trkpt lat="44.46774" lon="1.27206">
        <ele>133.28</ele>
        <time>2020-09-17T09:53:05Z</time>
      </trkpt>
      <trkpt lat="44.46796" lon="1.2721">
        <ele>133.28</ele>
        <time>2020-09-17T09:53:24Z</time>
      </trkpt>
      <trkpt lat="44.46811" lon="1.27205">
        <ele>132.8</ele>
        <time>2020-09-17T09:53:37Z</time>
      </trkpt>
      <trkpt lat="44.46833" lon="1.27203">
        <ele>132.32</ele>
        <time>2020-09-17T09:53:55Z</time>
      </trkpt>
      <trkpt lat="44.46852" lon="1.27207">
        <ele>130.4</ele>
        <time>2020-09-17T09:54:13Z</time>
      </trkpt>
      <trkpt lat="44.46855" lon="1.27208">
        <ele>130.4</ele>
        <time>2020-09-17T09:54:15Z</time>
      </trkpt>
      <trkpt lat="44.46881" lon="1.27218">
        <ele>130.4</ele>
        <time>2020-09-17T09:54:35Z</time>
      </trkpt>
      <trkpt lat="44.469" lon="1.27228">
        <ele>129.43</ele>
        <time>2020-09-17T09:54:52Z</time>
      </trkpt>
      <trkpt lat="44.4692" lon="1.27236">
        <ele>132.32</ele>
        <time>2020-09-17T09:55:08Z</time>
      </trkpt>
      <trkpt lat="44.46943" lon="1.27243">
        <ele>135.68</ele>
        <time>2020-09-17T09:55:26Z</time>
      </trkpt>
      <trkpt lat="44.46966" lon="1.27254">
        <ele>135.68</ele>
        <time>2020-09-17T09:55:46Z</time>
      </trkpt>
      <trkpt lat="44.46981" lon="1.27261">
        <ele>133.76</ele>
        <time>2020-09-17T09:55:59Z</time>
      </trkpt>
      <trkpt lat="44.46997" lon="1.27272">
        <ele>131.84</ele>
        <time>2020-09-17T09:56:16Z</time>
      </trkpt>
      <trkpt lat="44.47017" lon="1.27284">
        <ele>128.47</ele>
        <time>2020-09-17T09:56:33Z</time>
      </trkpt>
      <trkpt lat="44.47039" lon="1.27296">
        <ele>127.03</ele>
        <time>2020-09-17T09:56:52Z</time>
      </trkpt>
      <trkpt lat="44.47058" lon="1.27307">
        <ele>125.11</ele>
        <time>2020-09-17T09:57:10Z</time>
      </trkpt>
      <trkpt lat="44.47077" lon="1.27318">
        <ele>124.15</ele>
        <time>2020-09-17T09:57:26Z</time>
      </trkpt>
      <trkpt lat="44.47096" lon="1.27335">
        <ele>123.19</ele>
        <time>2020-09-17T09:57:45Z</time>
      </trkpt>
      <trkpt lat="44.47108" lon="1.27349">
        <ele>123.67</ele>
        <time>2020-09-17T09:57:58Z</time>
      </trkpt>
      <trkpt lat="44.47126" lon="1.27374">
        <ele>125.11</ele>
        <time>2020-09-17T09:58:16Z</time>
      </trkpt>
      <trkpt lat="44.47131" lon="1.27378">
        <ele>127.03</ele>
        <time>2020-09-17T09:58:33Z</time>
      </trkpt>
      <trkpt lat="44.47131" lon="1.27374">
        <ele>127.51</ele>
        <time>2020-09-17T09:58:46Z</time>
      </trkpt>
      <trkpt lat="44.47137" lon="1.27388">
        <ele>126.55</ele>
        <time>2020-09-17T09:58:59Z</time>
      </trkpt>
      <trkpt lat="44.47155" lon="1.27408">
        <ele>126.07</ele>
        <time>2020-09-17T09:59:17Z</time>
      </trkpt>
      <trkpt lat="44.47177" lon="1.27421">
        <ele>127.03</ele>
        <time>2020-09-17T09:59:36Z</time>
      </trkpt>
      <trkpt lat="44.47179" lon="1.27423">
        <ele>126.55</ele>
        <time>2020-09-17T09:59:38Z</time>
      </trkpt>
      <trkpt lat="44.47197" lon="1.2744">
        <ele>125.11</ele>
        <time>2020-09-17T09:59:56Z</time>
      </trkpt>
      <trkpt lat="44.47213" lon="1.27462">
        <ele>123.67</ele>
        <time>2020-09-17T10:00:14Z</time>
      </trkpt>
      <trkpt lat="44.47227" lon="1.27482">
        <ele>123.19</ele>
        <time>2020-09-17T10:00:32Z</time>
      </trkpt>
      <trkpt lat="44.47248" lon="1.27501">
        <ele>119.82</ele>
        <time>2020-09-17T10:00:53Z</time>
      </trkpt>
      <trkpt lat="44.47267" lon="1.27525">
        <ele>121.74</ele>
        <time>2020-09-17T10:01:12Z</time>
      </trkpt>
      <trkpt lat="44.4728" lon="1.27547">
        <ele>119.82</ele>
        <time>2020-09-17T10:01:30Z</time>
      </trkpt>
      <trkpt lat="44.47287" lon="1.2757">
        <ele>116.94</ele>
        <time>2020-09-17T10:01:46Z</time>
      </trkpt>
      <trkpt lat="44.47294" lon="1.27592">
        <ele>114.05</ele>
        <time>2020-09-17T10:02:02Z</time>
      </trkpt>
      <trkpt lat="44.47307" lon="1.27616">
        <ele>110.21</ele>
        <time>2020-09-17T10:02:21Z</time>
      </trkpt>
      <trkpt lat="44.47307" lon="1.27617">
        <ele>107.81</ele>
        <time>2020-09-17T10:02:37Z</time>
      </trkpt>
      <trkpt lat="44.47307" lon="1.2761">
        <ele>105.88</ele>
        <time>2020-09-17T10:02:57Z</time>
      </trkpt>
      <trkpt lat="44.47304" lon="1.27602">
        <ele>107.32</ele>
        <time>2020-09-17T10:03:12Z</time>
      </trkpt>
      <trkpt lat="44.47304" lon="1.27604">
        <ele>106.84</ele>
        <time>2020-09-17T10:03:34Z</time>
      </trkpt>
      <trkpt lat="44.47317" lon="1.27598">
        <ele>105.88</ele>
        <time>2020-09-17T10:03:55Z</time>
      </trkpt>
      <trkpt lat="44.47311" lon="1.27605">
        <ele>111.65</ele>
        <time>2020-09-17T10:04:15Z</time>
      </trkpt>
      <trkpt lat="44.47315" lon="1.27604">
        <ele>118.38</ele>
        <time>2020-09-17T10:04:35Z</time>
      </trkpt>
      <trkpt lat="44.47312" lon="1.27608">
        <ele>116.46</ele>
        <time>2020-09-17T10:04:58Z</time>
      </trkpt>
      <trkpt lat="44.47316" lon="1.27625">
        <ele>113.09</ele>
        <time>2020-09-17T10:05:12Z</time>
      </trkpt>
      <trkpt lat="44.47329" lon="1.27645">
        <ele>112.13</ele>
        <time>2020-09-17T10:05:28Z</time>
      </trkpt>
      <trkpt lat="44.47347" lon="1.27676">
        <ele>112.61</ele>
        <time>2020-09-17T10:05:50Z</time>
      </trkpt>
      <trkpt lat="44.47358" lon="1.27697">
        <ele>112.13</ele>
        <time>2020-09-17T10:06:04Z</time>
      </trkpt>
      <trkpt lat="44.47371" lon="1.27721">
        <ele>109.73</ele>
        <time>2020-09-17T10:06:22Z</time>
      </trkpt>
      <trkpt lat="44.4739" lon="1.27753">
        <ele>109.25</ele>
        <time>2020-09-17T10:06:45Z</time>
      </trkpt>
      <trkpt lat="44.47406" lon="1.27775">
        <ele>107.81</ele>
        <time>2020-09-17T10:07:02Z</time>
      </trkpt>
      <trkpt lat="44.47416" lon="1.27795">
        <ele>106.84</ele>
        <time>2020-09-17T10:07:17Z</time>
      </trkpt>
      <trkpt lat="44.47425" lon="1.27815">
        <ele>105.88</ele>
        <time>2020-09-17T10:07:31Z</time>
      </trkpt>
      <trkpt lat="44.47436" lon="1.27839">
        <ele>106.36</ele>
        <time>2020-09-17T10:07:47Z</time>
      </trkpt>
      <trkpt lat="44.47451" lon="1.2786">
        <ele>105.4</ele>
        <time>2020-09-17T10:08:03Z</time>
      </trkpt>
      <trkpt lat="44.47467" lon="1.27879">
        <ele>103</ele>
        <time>2020-09-17T10:08:19Z</time>
      </trkpt>
      <trkpt lat="44.47484" lon="1.27898">
        <ele>103.48</ele>
        <time>2020-09-17T10:08:36Z</time>
      </trkpt>
      <trkpt lat="44.47488" lon="1.27907">
        <ele>103.96</ele>
        <time>2020-09-17T10:08:52Z</time>
      </trkpt>
      <trkpt lat="44.47486" lon="1.27904">
        <ele>103.48</ele>
        <time>2020-09-17T10:09:17Z</time>
      </trkpt>
      <trkpt lat="44.47487" lon="1.27909">
        <ele>104.44</ele>
        <time>2020-09-17T10:09:23Z</time>
      </trkpt>
      <trkpt lat="44.47489" lon="1.27948">
        <ele>105.88</ele>
        <time>2020-09-17T10:09:45Z</time>
      </trkpt>
      <trkpt lat="44.47491" lon="1.27972">
        <ele>106.84</ele>
        <time>2020-09-17T10:09:58Z</time>
      </trkpt>
      <trkpt lat="44.47495" lon="1.27998">
        <ele>105.88</ele>
        <time>2020-09-17T10:10:15Z</time>
      </trkpt>
      <trkpt lat="44.47499" lon="1.2803">
        <ele>104.92</ele>
        <time>2020-09-17T10:10:33Z</time>
      </trkpt>
      <trkpt lat="44.47499" lon="1.2805">
        <ele>106.84</ele>
        <time>2020-09-17T10:10:45Z</time>
      </trkpt>
      <trkpt lat="44.47504" lon="1.28076">
        <ele>106.84</ele>
        <time>2020-09-17T10:11:01Z</time>
      </trkpt>
      <trkpt lat="44.4751" lon="1.28091">
        <ele>104.44</ele>
        <time>2020-09-17T10:11:15Z</time>
      </trkpt>
      <trkpt lat="44.47513" lon="1.2811">
        <ele>103.96</ele>
        <time>2020-09-17T10:11:29Z</time>
      </trkpt>
      <trkpt lat="44.47518" lon="1.28141">
        <ele>103.48</ele>
        <time>2020-09-17T10:11:50Z</time>
      </trkpt>
      <trkpt lat="44.47522" lon="1.28149">
        <ele>102.04</ele>
        <time>2020-09-17T10:12:05Z</time>
      </trkpt>
      <trkpt lat="44.47523" lon="1.28154">
        <ele>102.52</ele>
        <time>2020-09-17T10:12:19Z</time>
      </trkpt>
      <trkpt lat="44.47529" lon="1.28172">
        <ele>101.56</ele>
        <time>2020-09-17T10:12:33Z</time>
      </trkpt>
      <trkpt lat="44.47531" lon="1.28176">
        <ele>101.08</ele>
        <time>2020-09-17T10:12:36Z</time>
      </trkpt>
      <trkpt lat="44.47545" lon="1.28195">
        <ele>100.11</ele>
        <time>2020-09-17T10:12:54Z</time>
      </trkpt>
      <trkpt lat="44.47566" lon="1.28199">
        <ele>97.71</ele>
        <time>2020-09-17T10:13:13Z</time>
      </trkpt>
      <trkpt lat="44.47591" lon="1.28197">
        <ele>96.75</ele>
        <time>2020-09-17T10:13:34Z</time>
      </trkpt>
      <trkpt lat="44.47615" lon="1.28196">
        <ele>96.75</ele>
        <time>2020-09-17T10:13:55Z</time>
      </trkpt>
      <trkpt lat="44.47629" lon="1.28195">
        <ele>95.31</ele>
        <time>2020-09-17T10:14:09Z</time>
      </trkpt>
      <trkpt lat="44.47648" lon="1.28194">
        <ele>94.83</ele>
        <time>2020-09-17T10:14:28Z</time>
      </trkpt>
      <trkpt lat="44.47659" lon="1.28193">
        <ele>96.27</ele>
        <time>2020-09-17T10:14:43Z</time>
      </trkpt>
      <trkpt lat="44.47679" lon="1.28192">
        <ele>96.27</ele>
        <time>2020-09-17T10:15:01Z</time>
      </trkpt>
      <trkpt lat="44.47694" lon="1.28191">
        <ele>94.35</ele>
        <time>2020-09-17T10:15:18Z</time>
      </trkpt>
      <trkpt lat="44.47705" lon="1.28195">
        <ele>92.42</ele>
        <time>2020-09-17T10:15:30Z</time>
      </trkpt>
      <trkpt lat="44.47714" lon="1.28222">
        <ele>96.75</ele>
        <time>2020-09-17T10:15:48Z</time>
      </trkpt>
      <trkpt lat="44.47718" lon="1.28241">
        <ele>95.79</ele>
        <time>2020-09-17T10:16:01Z</time>
      </trkpt>
      <trkpt lat="44.47719" lon="1.28249">
        <ele>95.79</ele>
        <time>2020-09-17T10:16:07Z</time>
      </trkpt>
      <trkpt lat="44.47725" lon="1.28277">
        <ele>92.42</ele>
        <time>2020-09-17T10:16:27Z</time>
      </trkpt>
      <trkpt lat="44.4773" lon="1.28301">
        <ele>87.62</ele>
        <time>2020-09-17T10:16:44Z</time>
      </trkpt>
      <trkpt lat="44.47735" lon="1.28326">
        <ele>84.25</ele>
        <time>2020-09-17T10:17:02Z</time>
      </trkpt>
      <trkpt lat="44.47741" lon="1.28349">
        <ele>84.73</ele>
        <time>2020-09-17T10:17:19Z</time>
      </trkpt>
      <trkpt lat="44.47746" lon="1.28379">
        <ele>92.42</ele>
        <time>2020-09-17T10:17:36Z</time>
      </trkpt>
      <trkpt lat="44.47754" lon="1.28413">
        <ele>96.75</ele>
        <time>2020-09-17T10:17:56Z</time>
      </trkpt>
      <trkpt lat="44.47762" lon="1.28442">
        <ele>99.15</ele>
        <time>2020-09-17T10:18:16Z</time>
      </trkpt>
      <trkpt lat="44.4777" lon="1.28465">
        <ele>97.71</ele>
        <time>2020-09-17T10:18:33Z</time>
      </trkpt>
      <trkpt lat="44.47776" lon="1.28489">
        <ele>95.79</ele>
        <time>2020-09-17T10:18:51Z</time>
      </trkpt>
      <trkpt lat="44.47786" lon="1.28519">
        <ele>93.87</ele>
        <time>2020-09-17T10:19:12Z</time>
      </trkpt>
      <trkpt lat="44.47791" lon="1.28545">
        <ele>94.83</ele>
        <time>2020-09-17T10:19:28Z</time>
      </trkpt>
      <trkpt lat="44.47796" lon="1.28566">
        <ele>93.39</ele>
        <time>2020-09-17T10:19:45Z</time>
      </trkpt>
      <trkpt lat="44.47789" lon="1.28581">
        <ele>95.31</ele>
        <time>2020-09-17T10:20:02Z</time>
      </trkpt>
      <trkpt lat="44.47781" lon="1.28584">
        <ele>97.71</ele>
        <time>2020-09-17T10:20:10Z</time>
      </trkpt>
      <trkpt lat="44.4776" lon="1.28586">
        <ele>98.19</ele>
        <time>2020-09-17T10:20:28Z</time>
      </trkpt>
      <trkpt lat="44.47742" lon="1.28586">
        <ele>98.67</ele>
        <time>2020-09-17T10:20:46Z</time>
      </trkpt>
      <trkpt lat="44.47738" lon="1.28583">
        <ele>98.19</ele>
        <time>2020-09-17T10:20:59Z</time>
      </trkpt>
      <trkpt lat="44.47725" lon="1.28582">
        <ele>96.27</ele>
        <time>2020-09-17T10:21:14Z</time>
      </trkpt>
      <trkpt lat="44.4771" lon="1.28578">
        <ele>95.79</ele>
        <time>2020-09-17T10:21:29Z</time>
      </trkpt>
      <trkpt lat="44.47707" lon="1.28577">
        <ele>94.83</ele>
        <time>2020-09-17T10:21:32Z</time>
      </trkpt>
      <trkpt lat="44.47699" lon="1.28574">
        <ele>95.31</ele>
        <time>2020-09-17T10:21:46Z</time>
      </trkpt>
      <trkpt lat="44.47697" lon="1.28582">
        <ele>94.35</ele>
        <time>2020-09-17T10:22:02Z</time>
      </trkpt>
      <trkpt lat="44.47698" lon="1.28587">
        <ele>95.79</ele>
        <time>2020-09-17T10:22:25Z</time>
      </trkpt>
      <trkpt lat="44.47696" lon="1.28587">
        <ele>98.67</ele>
        <time>2020-09-17T10:22:44Z</time>
      </trkpt>
      <trkpt lat="44.47696" lon="1.28581">
        <ele>100.11</ele>
        <time>2020-09-17T10:22:57Z</time>
      </trkpt>
      <trkpt lat="44.47693" lon="1.28576">
        <ele>101.56</ele>
        <time>2020-09-17T10:23:16Z</time>
      </trkpt>
      <trkpt lat="44.47693" lon="1.28575">
        <ele>103.48</ele>
        <time>2020-09-17T10:23:35Z</time>
      </trkpt>
      <trkpt lat="44.47694" lon="1.28572">
        <ele>105.4</ele>
        <time>2020-09-17T10:23:58Z</time>
      </trkpt>
      <trkpt lat="44.47694" lon="1.28571">
        <ele>107.32</ele>
        <time>2020-09-17T10:24:22Z</time>
      </trkpt>
      <trkpt lat="44.47695" lon="1.28571">
        <ele>108.29</ele>
        <time>2020-09-17T10:24:43Z</time>
      </trkpt>
    </trkseg>
  </trk>
</gpx>